PWSweather.com
Personal Weather Stations
Station Observations
KOHREFORM1
Reform, Ohio, Newark, OH 43055

Reform, OhioNewark, OH 43055

Lat: 40.1502, Lon: -82.2417

Elevation: 1043

Station Type: Davis Vantage Pro 2 Plus

Latest ConditionsUpdated 8:19:11 PM EST Friday, Jan 19, 2018
Currently Today's Max Today's Min Today's Average
Temperature 30.8°F-0.7°C 37.4°F3.0°C 18.5°F-7.5°C 26.5°F-3.1°C
Dew Point 18.6°F-7.4°C 20.5°F-6.4°C 10.5°F-11.9°C 14.7°F-9.6°C
Winds 1.0 mph SW1.6 kmh SW 13.0 mph WSW20.9 kmh WSW - 3.0 mph 4.8 kmh
Wind Gusts 7.0 mph11.3 kmh 18.0 mph29.0 kmh - -
Humidity 64% 75% 52% 65%
Pressure 30.07 in1018.3 mb 30.23 in1023.7 mb 30.07 in1018.3 mb -
Precipitation - 0.08 in2.0 mm - -
Hour Temp Dew Point Humidity Winds Wind Gusts Pressure Precip Precip Rate Daily Precip Total
08:19 PM 30.8°F-0.7°C 18.6°F-7.4°C 64% 1.0 mph SW1.6 kmh SW 7.0 mph11.3 kmh 30.07 in1018.3 mb 0.00 in0.0 mm 0.00 in0.0 mm 0.08 in2.0 mm
08:17 PM 30.8°F-0.7°C 18.6°F-7.4°C 64% 2.0 mph WSW3.2 kmh WSW 8.0 mph12.9 kmh 30.07 in1018.3 mb 0.00 in0.0 mm 0.00 in0.0 mm 0.08 in2.0 mm
08:15 PM 30.8°F-0.7°C 18.6°F-7.4°C 64% 2.0 mph SW3.2 kmh SW 8.0 mph12.9 kmh 30.07 in1018.3 mb 0.00 in0.0 mm 0.00 in0.0 mm 0.08 in2.0 mm
08:13 PM 30.8°F-0.7°C 18.6°F-7.4°C 64% 2.0 mph SW3.2 kmh SW 8.0 mph12.9 kmh 30.07 in1018.3 mb 0.00 in0.0 mm 0.00 in0.0 mm 0.08 in2.0 mm
08:11 PM 30.9°F-0.6°C 18.7°F-7.4°C 64% 1.0 mph WSW1.6 kmh WSW 8.0 mph12.9 kmh 30.07 in1018.3 mb 0.00 in0.0 mm 0.00 in0.0 mm 0.08 in2.0 mm
08:09 PM 31.0°F-0.6°C 18.8°F-7.3°C 64% 1.0 mph WSW1.6 kmh WSW 8.0 mph12.9 kmh 30.07 in1018.3 mb 0.00 in0.0 mm 0.00 in0.0 mm 0.08 in2.0 mm
08:07 PM 31.0°F-0.6°C 18.8°F-7.3°C 64% 2.0 mph SW3.2 kmh SW 8.0 mph12.9 kmh 30.07 in1018.3 mb 0.00 in0.0 mm 0.00 in0.0 mm 0.08 in2.0 mm
08:05 PM 31.0°F-0.6°C 18.8°F-7.3°C 64% 1.0 mph SW1.6 kmh SW 8.0 mph12.9 kmh 30.07 in1018.3 mb 0.00 in0.0 mm 0.00 in0.0 mm 0.08 in2.0 mm
08:03 PM 31.0°F-0.6°C 18.8°F-7.3°C 64% 2.0 mph WSW3.2 kmh WSW 8.0 mph12.9 kmh 30.07 in1018.3 mb 0.00 in0.0 mm 0.00 in0.0 mm 0.08 in2.0 mm
08:01 PM 31.0°F-0.6°C 18.8°F-7.3°C 64% 2.0 mph WSW3.2 kmh WSW 8.0 mph12.9 kmh 30.07 in1018.3 mb 0.00 in0.0 mm 0.00 in0.0 mm 0.08 in2.0 mm
07:59 PM 31.0°F-0.6°C 19.1°F-7.2°C 65% 3.0 mph WNW4.8 kmh WNW 8.0 mph12.9 kmh 30.07 in1018.3 mb 0.00 in0.0 mm 0.00 in0.0 mm 0.08 in2.0 mm
07:57 PM 31.0°F-0.6°C 18.8°F-7.3°C 64% 2.0 mph SW3.2 kmh SW 7.0 mph11.3 kmh 30.07 in1018.3 mb 0.00 in0.0 mm 0.00 in0.0 mm 0.08 in2.0 mm
07:55 PM 31.0°F-0.6°C 18.8°F-7.3°C 64% 2.0 mph SW3.2 kmh SW 7.0 mph11.3 kmh 30.07 in1018.3 mb 0.00 in0.0 mm 0.00 in0.0 mm 0.08 in2.0 mm
07:53 PM 31.0°F-0.6°C 18.8°F-7.3°C 64% 2.0 mph SW3.2 kmh SW 7.0 mph11.3 kmh 30.07 in1018.3 mb 0.00 in0.0 mm 0.00 in0.0 mm 0.08 in2.0 mm
07:51 PM 31.0°F-0.6°C 19.1°F-7.2°C 65% 4.0 mph WSW6.4 kmh WSW 7.0 mph11.3 kmh 30.07 in1018.3 mb 0.00 in0.0 mm 0.00 in0.0 mm 0.08 in2.0 mm
07:49 PM 31.0°F-0.6°C 18.8°F-7.3°C 64% 2.0 mph SW3.2 kmh SW 7.0 mph11.3 kmh 30.07 in1018.3 mb 0.00 in0.0 mm 0.00 in0.0 mm 0.08 in2.0 mm
07:47 PM 31.1°F-0.5°C 19.2°F-7.1°C 65% 2.0 mph SSW3.2 kmh SSW 7.0 mph11.3 kmh 30.07 in1018.3 mb 0.00 in0.0 mm 0.00 in0.0 mm 0.08 in2.0 mm
07:45 PM 31.1°F-0.5°C 18.9°F-7.3°C 64% 1.0 mph W1.6 kmh W 7.0 mph11.3 kmh 30.07 in1018.3 mb 0.00 in0.0 mm 0.00 in0.0 mm 0.08 in2.0 mm
07:43 PM 31.2°F-0.4°C 19.0°F-7.2°C 64% 1.0 mph SW1.6 kmh SW 7.0 mph11.3 kmh 30.07 in1018.3 mb 0.00 in0.0 mm 0.00 in0.0 mm 0.08 in2.0 mm
07:41 PM 31.2°F-0.4°C 19.0°F-7.2°C 64% 1.0 mph SSW1.6 kmh SSW 7.0 mph11.3 kmh 30.07 in1018.3 mb 0.00 in0.0 mm 0.00 in0.0 mm 0.08 in2.0 mm
07:39 PM 31.2°F-0.4°C 19.0°F-7.2°C 64% 2.0 mph SSW3.2 kmh SSW 7.0 mph11.3 kmh 30.07 in1018.3 mb 0.00 in0.0 mm 0.00 in0.0 mm 0.08 in2.0 mm
07:37 PM 31.3°F-0.4°C 19.0°F-7.2°C 64% 2.0 mph SW3.2 kmh SW 5.0 mph8.0 kmh 30.07 in1018.3 mb 0.00 in0.0 mm 0.00 in0.0 mm 0.08 in2.0 mm
07:35 PM 31.3°F-0.4°C 19.0°F-7.2°C 64% 4.0 mph SW6.4 kmh SW 5.0 mph8.0 kmh 30.07 in1018.3 mb 0.00 in0.0 mm 0.00 in0.0 mm 0.08 in2.0 mm
07:33 PM 31.4°F-0.3°C 19.1°F-7.2°C 64% Calm Calm 6.0 mph9.7 kmh 30.07 in1018.3 mb 0.00 in0.0 mm 0.00 in0.0 mm 0.08 in2.0 mm
07:31 PM 31.5°F-0.3°C 18.8°F-7.3°C 63% 1.0 mph SW1.6 kmh SW 6.0 mph9.7 kmh 30.07 in1018.3 mb 0.00 in0.0 mm 0.00 in0.0 mm 0.08 in2.0 mm
07:29 PM 31.5°F-0.3°C 19.2°F-7.1°C 64% 1.0 mph NW1.6 kmh NW 6.0 mph9.7 kmh 30.08 in1018.6 mb 0.00 in0.0 mm 0.00 in0.0 mm 0.08 in2.0 mm
07:27 PM 31.6°F-0.2°C 18.9°F-7.3°C 63% 1.0 mph WSW1.6 kmh WSW 6.0 mph9.7 kmh 30.07 in1018.3 mb 0.00 in0.0 mm 0.00 in0.0 mm 0.08 in2.0 mm
07:25 PM 31.7°F-0.2°C 19.0°F-7.2°C 63% 1.0 mph SW1.6 kmh SW 6.0 mph9.7 kmh 30.07 in1018.3 mb 0.00 in0.0 mm 0.00 in0.0 mm 0.08 in2.0 mm
07:23 PM 31.8°F-0.1°C 19.1°F-7.2°C 63% 1.0 mph SW1.6 kmh SW 9.0 mph14.5 kmh 30.08 in1018.6 mb 0.00 in0.0 mm 0.00 in0.0 mm 0.08 in2.0 mm
07:21 PM 31.9°F-0.1°C 19.2°F-7.1°C 63% 1.0 mph SW1.6 kmh SW 9.0 mph14.5 kmh 30.08 in1018.6 mb 0.00 in0.0 mm 0.00 in0.0 mm 0.08 in2.0 mm
07:19 PM 31.9°F-0.1°C 19.2°F-7.1°C 63% 2.0 mph WSW3.2 kmh WSW 9.0 mph14.5 kmh 30.08 in1018.6 mb 0.00 in0.0 mm 0.00 in0.0 mm 0.08 in2.0 mm
07:17 PM 32.0°F0.0°C 19.3°F-7.1°C 63% 4.0 mph SW6.4 kmh SW 9.0 mph14.5 kmh 30.08 in1018.6 mb 0.00 in0.0 mm 0.00 in0.0 mm 0.08 in2.0 mm
07:15 PM 32.0°F0.0°C 18.9°F-7.3°C 62% Calm Calm 9.0 mph14.5 kmh 30.08 in1018.6 mb 0.00 in0.0 mm 0.00 in0.0 mm 0.08 in2.0 mm
07:13 PM 32.1°F0.1°C 19.8°F-6.8°C 64% 2.0 mph SW3.2 kmh SW 9.0 mph14.5 kmh 30.08 in1018.6 mb 0.00 in0.0 mm 0.00 in0.0 mm 0.08 in2.0 mm
07:11 PM 32.1°F0.1°C 19.4°F-7.0°C 63% 1.0 mph SW1.6 kmh SW 9.0 mph14.5 kmh 30.08 in1018.6 mb 0.00 in0.0 mm 0.00 in0.0 mm 0.08 in2.0 mm
07:09 PM 32.1°F0.1°C 19.4°F-7.0°C 63% 2.0 mph SW3.2 kmh SW 9.0 mph14.5 kmh 30.08 in1018.6 mb 0.00 in0.0 mm 0.00 in0.0 mm 0.08 in2.0 mm
07:07 PM 32.1°F0.1°C 19.4°F-7.0°C 63% 2.0 mph WNW3.2 kmh WNW 9.0 mph14.5 kmh 30.08 in1018.6 mb 0.00 in0.0 mm 0.00 in0.0 mm 0.08 in2.0 mm
07:05 PM 32.0°F0.0°C 19.3°F-7.1°C 63% 2.0 mph WSW3.2 kmh WSW 9.0 mph14.5 kmh 30.08 in1018.6 mb 0.00 in0.0 mm 0.00 in0.0 mm 0.08 in2.0 mm
07:03 PM 32.0°F0.0°C 19.3°F-7.1°C 63% 1.0 mph SW1.6 kmh SW 6.0 mph9.7 kmh 30.08 in1018.6 mb 0.00 in0.0 mm 0.00 in0.0 mm 0.08 in2.0 mm
07:01 PM 32.0°F0.0°C 19.3°F-7.1°C 63% 1.0 mph WSW1.6 kmh WSW 6.0 mph9.7 kmh 30.08 in1018.6 mb 0.00 in0.0 mm 0.00 in0.0 mm 0.08 in2.0 mm
06:59 PM 32.0°F0.0°C 18.9°F-7.3°C 62% 1.0 mph WSW1.6 kmh WSW 5.0 mph8.0 kmh 30.08 in1018.6 mb 0.00 in0.0 mm 0.00 in0.0 mm 0.08 in2.0 mm
06:57 PM 32.1°F0.1°C 19.4°F-7.0°C 63% 1.0 mph SW1.6 kmh SW 4.0 mph6.4 kmh 30.08 in1018.6 mb 0.00 in0.0 mm 0.00 in0.0 mm 0.08 in2.0 mm
06:55 PM 32.2°F0.1°C 19.5°F-6.9°C 63% 1.0 mph SW1.6 kmh SW 5.0 mph8.0 kmh 30.08 in1018.6 mb 0.00 in0.0 mm 0.00 in0.0 mm 0.08 in2.0 mm
06:53 PM 32.2°F0.1°C 19.5°F-6.9°C 63% 2.0 mph SW3.2 kmh SW 5.0 mph8.0 kmh 30.08 in1018.6 mb 0.00 in0.0 mm 0.00 in0.0 mm 0.08 in2.0 mm
06:51 PM 32.2°F0.1°C 19.1°F-7.2°C 62% 1.0 mph WSW1.6 kmh WSW 5.0 mph8.0 kmh 30.08 in1018.6 mb 0.00 in0.0 mm 0.00 in0.0 mm 0.08 in2.0 mm
06:49 PM 32.3°F0.2°C 19.6°F-6.9°C 63% 2.0 mph SW3.2 kmh SW 5.0 mph8.0 kmh 30.08 in1018.6 mb 0.00 in0.0 mm 0.00 in0.0 mm 0.08 in2.0 mm
06:47 PM 32.3°F0.2°C 19.6°F-6.9°C 63% 1.0 mph W1.6 kmh W 5.0 mph8.0 kmh 30.08 in1018.6 mb 0.00 in0.0 mm 0.00 in0.0 mm 0.08 in2.0 mm
06:45 PM 32.3°F0.2°C 19.6°F-6.9°C 63% 2.0 mph SSW3.2 kmh SSW 8.0 mph12.9 kmh 30.08 in1018.6 mb 0.00 in0.0 mm 0.00 in0.0 mm 0.08 in2.0 mm
06:43 PM 32.2°F0.1°C 19.1°F-7.2°C 62% 1.0 mph WSW1.6 kmh WSW 8.0 mph12.9 kmh 30.08 in1018.6 mb 0.00 in0.0 mm 0.00 in0.0 mm 0.08 in2.0 mm
06:41 PM 32.2°F0.1°C 19.5°F-6.9°C 63% 4.0 mph SSW6.4 kmh SSW 8.0 mph12.9 kmh 30.08 in1018.6 mb 0.00 in0.0 mm 0.00 in0.0 mm 0.08 in2.0 mm
06:39 PM 32.1°F0.1°C 19.4°F-7.0°C 63% 1.0 mph W1.6 kmh W 8.0 mph12.9 kmh 30.09 in1019.0 mb 0.00 in0.0 mm 0.00 in0.0 mm 0.08 in2.0 mm
06:37 PM 32.2°F0.1°C 19.5°F-6.9°C 63% 3.0 mph SW4.8 kmh SW 8.0 mph12.9 kmh 30.09 in1019.0 mb 0.00 in0.0 mm 0.00 in0.0 mm 0.08 in2.0 mm
06:35 PM 32.2°F0.1°C 19.5°F-6.9°C 63% 2.0 mph WSW3.2 kmh WSW 8.0 mph12.9 kmh 30.09 in1019.0 mb 0.00 in0.0 mm 0.00 in0.0 mm 0.08 in2.0 mm
06:33 PM 32.3°F0.2°C 19.6°F-6.9°C 63% 1.0 mph WSW1.6 kmh WSW 8.0 mph12.9 kmh 30.09 in1019.0 mb 0.00 in0.0 mm 0.00 in0.0 mm 0.08 in2.0 mm
06:31 PM 32.4°F0.2°C 19.3°F-7.1°C 62% 1.0 mph SW1.6 kmh SW 8.0 mph12.9 kmh 30.09 in1019.0 mb 0.00 in0.0 mm 0.00 in0.0 mm 0.08 in2.0 mm
06:29 PM 32.4°F0.2°C 19.3°F-7.1°C 62% 2.0 mph SW3.2 kmh SW 8.0 mph12.9 kmh 30.09 in1019.0 mb 0.00 in0.0 mm 0.00 in0.0 mm 0.08 in2.0 mm
06:27 PM 32.5°F0.3°C 19.4°F-7.0°C 62% 1.0 mph SSW1.6 kmh SSW 8.0 mph12.9 kmh 30.09 in1019.0 mb 0.00 in0.0 mm 0.00 in0.0 mm 0.08 in2.0 mm
06:25 PM 32.5°F0.3°C 19.4°F-7.0°C 62% 1.0 mph WSW1.6 kmh WSW 7.0 mph11.3 kmh 30.09 in1019.0 mb 0.00 in0.0 mm 0.00 in0.0 mm 0.08 in2.0 mm
06:23 PM 32.5°F0.3°C 19.4°F-7.0°C 62% 2.0 mph SSW3.2 kmh SSW 7.0 mph11.3 kmh 30.09 in1019.0 mb 0.00 in0.0 mm 0.00 in0.0 mm 0.08 in2.0 mm
06:21 PM 32.6°F0.3°C 19.5°F-6.9°C 62% 1.0 mph SSW1.6 kmh SSW 7.0 mph11.3 kmh 30.09 in1019.0 mb 0.00 in0.0 mm 0.00 in0.0 mm 0.08 in2.0 mm
06:19 PM 32.6°F0.3°C 19.1°F-7.2°C 61% 1.0 mph W1.6 kmh W 7.0 mph11.3 kmh 30.09 in1019.0 mb 0.00 in0.0 mm 0.00 in0.0 mm 0.08 in2.0 mm
06:17 PM 32.7°F0.4°C 19.6°F-6.9°C 62% 2.0 mph S3.2 kmh S 4.0 mph6.4 kmh 30.09 in1019.0 mb 0.00 in0.0 mm 0.00 in0.0 mm 0.08 in2.0 mm
06:15 PM 32.8°F0.4°C 19.7°F-6.8°C 62% 3.0 mph SW4.8 kmh SW 6.0 mph9.7 kmh 30.09 in1019.0 mb 0.00 in0.0 mm 0.00 in0.0 mm 0.08 in2.0 mm
06:13 PM 32.9°F0.5°C 19.4°F-7.0°C 61% Calm Calm 6.0 mph9.7 kmh 30.09 in1019.0 mb 0.00 in0.0 mm 0.00 in0.0 mm 0.08 in2.0 mm
06:09 PM 33.2°F0.7°C 20.0°F-6.7°C 62% 1.0 mph SW1.6 kmh SW 6.0 mph9.7 kmh 30.09 in1019.0 mb 0.00 in0.0 mm 0.00 in0.0 mm 0.08 in2.0 mm
06:07 PM 33.3°F0.7°C 19.7°F-6.8°C 61% Calm Calm 6.0 mph9.7 kmh 30.09 in1019.0 mb 0.00 in0.0 mm 0.00 in0.0 mm 0.08 in2.0 mm
06:05 PM 33.5°F0.8°C 19.9°F-6.7°C 61% 1.0 mph SW1.6 kmh SW 6.0 mph9.7 kmh 30.09 in1019.0 mb 0.00 in0.0 mm 0.00 in0.0 mm 0.08 in2.0 mm
06:03 PM 33.6°F0.9°C 19.6°F-6.9°C 60% 1.0 mph SW1.6 kmh SW 6.0 mph9.7 kmh 30.09 in1019.0 mb 0.00 in0.0 mm 0.00 in0.0 mm 0.08 in2.0 mm
06:01 PM 33.7°F0.9°C 19.7°F-6.8°C 60% 2.0 mph WSW3.2 kmh WSW 6.0 mph9.7 kmh 30.09 in1019.0 mb 0.00 in0.0 mm 0.00 in0.0 mm 0.08 in2.0 mm
05:59 PM 33.7°F0.9°C 19.3°F-7.1°C 59% 3.0 mph WSW4.8 kmh WSW 6.0 mph9.7 kmh 30.09 in1019.0 mb 0.00 in0.0 mm 0.00 in0.0 mm 0.08 in2.0 mm
05:57 PM 33.8°F1.0°C 19.4°F-7.0°C 59% 3.0 mph WNW4.8 kmh WNW 6.0 mph9.7 kmh 30.09 in1019.0 mb 0.00 in0.0 mm 0.00 in0.0 mm 0.08 in2.0 mm
05:55 PM 34.0°F1.1°C 19.6°F-6.9°C 59% 2.0 mph SW3.2 kmh SW 4.0 mph6.4 kmh 30.09 in1019.0 mb 0.00 in0.0 mm 0.00 in0.0 mm 0.08 in2.0 mm
05:53 PM 34.1°F1.2°C 19.6°F-6.9°C 59% 1.0 mph SW1.6 kmh SW 4.0 mph6.4 kmh 30.09 in1019.0 mb 0.00 in0.0 mm 0.00 in0.0 mm 0.08 in2.0 mm
05:51 PM 34.2°F1.2°C 19.3°F-7.1°C 58% 4.0 mph S6.4 kmh S 8.0 mph12.9 kmh 30.09 in1019.0 mb 0.00 in0.0 mm 0.00 in0.0 mm 0.08 in2.0 mm
05:49 PM 34.3°F1.3°C 19.4°F-7.0°C 58% 2.0 mph W3.2 kmh W 8.0 mph12.9 kmh 30.09 in1019.0 mb 0.00 in0.0 mm 0.00 in0.0 mm 0.08 in2.0 mm
05:47 PM 34.5°F1.4°C 19.6°F-6.9°C 58% 2.0 mph SW3.2 kmh SW 8.0 mph12.9 kmh 30.09 in1019.0 mb 0.00 in0.0 mm 0.00 in0.0 mm 0.08 in2.0 mm
05:45 PM 34.6°F1.4°C 19.7°F-6.8°C 58% 1.0 mph WSW1.6 kmh WSW 8.0 mph12.9 kmh 30.09 in1019.0 mb 0.00 in0.0 mm 0.00 in0.0 mm 0.08 in2.0 mm
05:43 PM 34.6°F1.4°C 19.7°F-6.8°C 58% 2.0 mph WSW3.2 kmh WSW 8.0 mph12.9 kmh 30.09 in1019.0 mb 0.00 in0.0 mm 0.00 in0.0 mm 0.08 in2.0 mm
05:41 PM 34.7°F1.5°C 19.3°F-7.1°C 57% 2.0 mph WSW3.2 kmh WSW 13.0 mph20.9 kmh 30.09 in1019.0 mb 0.00 in0.0 mm 0.00 in0.0 mm 0.08 in2.0 mm
05:39 PM 34.8°F1.6°C 19.4°F-7.0°C 57% 2.0 mph SW3.2 kmh SW 13.0 mph20.9 kmh 30.09 in1019.0 mb 0.00 in0.0 mm 0.00 in0.0 mm 0.08 in2.0 mm
05:37 PM 34.9°F1.6°C 19.5°F-6.9°C 57% 2.0 mph SW3.2 kmh SW 13.0 mph20.9 kmh 30.09 in1019.0 mb 0.00 in0.0 mm 0.00 in0.0 mm 0.08 in2.0 mm
05:35 PM 35.0°F1.7°C 19.6°F-6.9°C 57% 2.0 mph SSE3.2 kmh SSE 13.0 mph20.9 kmh 30.09 in1019.0 mb 0.00 in0.0 mm 0.00 in0.0 mm 0.08 in2.0 mm
05:33 PM 35.0°F1.7°C 20.1°F-6.6°C 58% 3.0 mph SW4.8 kmh SW 13.0 mph20.9 kmh 30.09 in1019.0 mb 0.00 in0.0 mm 0.00 in0.0 mm 0.08 in2.0 mm
05:31 PM 35.1°F1.7°C 19.7°F-6.8°C 57% 1.0 mph W1.6 kmh W 13.0 mph20.9 kmh 30.09 in1019.0 mb 0.00 in0.0 mm 0.00 in0.0 mm 0.08 in2.0 mm
05:29 PM 35.1°F1.7°C 19.7°F-6.8°C 57% 5.0 mph WSW8.0 kmh WSW 13.0 mph20.9 kmh 30.09 in1019.0 mb 0.00 in0.0 mm 0.00 in0.0 mm 0.08 in2.0 mm
05:27 PM 35.2°F1.8°C 19.8°F-6.8°C 57% 2.0 mph WNW3.2 kmh WNW 13.0 mph20.9 kmh 30.09 in1019.0 mb 0.00 in0.0 mm 0.00 in0.0 mm 0.08 in2.0 mm
05:25 PM 35.2°F1.8°C 19.8°F-6.8°C 57% 4.0 mph WSW6.4 kmh WSW 13.0 mph20.9 kmh 30.09 in1019.0 mb 0.00 in0.0 mm 0.00 in0.0 mm 0.08 in2.0 mm
05:23 PM 35.3°F1.8°C 19.5°F-6.9°C 56% 2.0 mph SW3.2 kmh SW 13.0 mph20.9 kmh 30.09 in1019.0 mb 0.00 in0.0 mm 0.00 in0.0 mm 0.08 in2.0 mm
05:21 PM 35.3°F1.8°C 19.9°F-6.7°C 57% 3.0 mph W4.8 kmh W 11.0 mph17.7 kmh 30.09 in1019.0 mb 0.00 in0.0 mm 0.00 in0.0 mm 0.08 in2.0 mm
05:19 PM 35.5°F1.9°C 20.1°F-6.6°C 57% 1.0 mph W1.6 kmh W 11.0 mph17.7 kmh 30.09 in1019.0 mb 0.00 in0.0 mm 0.00 in0.0 mm 0.08 in2.0 mm
05:17 PM 35.5°F1.9°C 20.1°F-6.6°C 57% 1.0 mph SW1.6 kmh SW 11.0 mph17.7 kmh 30.09 in1019.0 mb 0.00 in0.0 mm 0.00 in0.0 mm 0.08 in2.0 mm
05:15 PM 35.7°F2.1°C 19.8°F-6.8°C 56% 4.0 mph SSW6.4 kmh SSW 11.0 mph17.7 kmh 30.09 in1019.0 mb 0.00 in0.0 mm 0.00 in0.0 mm 0.08 in2.0 mm
05:13 PM 35.7°F2.1°C 19.8°F-6.8°C 56% 2.0 mph WNW3.2 kmh WNW 11.0 mph17.7 kmh 30.09 in1019.0 mb 0.00 in0.0 mm 0.00 in0.0 mm 0.08 in2.0 mm
05:11 PM 35.7°F2.1°C 19.8°F-6.8°C 56% 4.0 mph W6.4 kmh W 11.0 mph17.7 kmh 30.09 in1019.0 mb 0.00 in0.0 mm 0.00 in0.0 mm 0.07 in1.8 mm
05:09 PM 35.7°F2.1°C 19.4°F-7.0°C 55% 4.0 mph WNW6.4 kmh WNW 11.0 mph17.7 kmh 30.09 in1019.0 mb 0.00 in0.0 mm 0.00 in0.0 mm 0.07 in1.8 mm
05:07 PM 35.7°F2.1°C 19.8°F-6.8°C 56% 4.0 mph SW6.4 kmh SW 10.0 mph16.1 kmh 30.10 in1019.3 mb 0.00 in0.0 mm 0.00 in0.0 mm 0.07 in1.8 mm
05:05 PM 35.7°F2.1°C 19.8°F-6.8°C 56% 2.0 mph W3.2 kmh W 10.0 mph16.1 kmh 30.10 in1019.3 mb 0.00 in0.0 mm 0.00 in0.0 mm 0.07 in1.8 mm
05:03 PM 35.7°F2.1°C 19.8°F-6.8°C 56% 3.0 mph WSW4.8 kmh WSW 10.0 mph16.1 kmh 30.10 in1019.3 mb 0.00 in0.0 mm 0.00 in0.0 mm 0.07 in1.8 mm
05:01 PM 35.9°F2.2°C 20.0°F-6.7°C 56% 3.0 mph NW4.8 kmh NW 10.0 mph16.1 kmh 30.10 in1019.3 mb 0.00 in0.0 mm 0.00 in0.0 mm 0.07 in1.8 mm
04:59 PM 36.0°F2.2°C 20.1°F-6.6°C 56% 2.0 mph SSW3.2 kmh SSW 9.0 mph14.5 kmh 30.10 in1019.3 mb 0.00 in0.0 mm 0.00 in0.0 mm 0.07 in1.8 mm
04:57 PM 36.1°F2.3°C 19.7°F-6.8°C 55% 4.0 mph W6.4 kmh W 9.0 mph14.5 kmh 30.10 in1019.3 mb 0.00 in0.0 mm 0.00 in0.0 mm 0.07 in1.8 mm
04:55 PM 36.1°F2.3°C 20.2°F-6.6°C 56% 5.0 mph WSW8.0 kmh WSW 14.0 mph22.5 kmh 30.10 in1019.3 mb 0.00 in0.0 mm 0.00 in0.0 mm 0.07 in1.8 mm
04:53 PM 36.2°F2.3°C 19.4°F-7.0°C 54% 1.0 mph WSW1.6 kmh WSW 14.0 mph22.5 kmh 30.10 in1019.3 mb 0.00 in0.0 mm 0.00 in0.0 mm 0.07 in1.8 mm
04:51 PM 36.3°F2.4°C 19.9°F-6.7°C 55% 4.0 mph W6.4 kmh W 14.0 mph22.5 kmh 30.10 in1019.3 mb 0.00 in0.0 mm 0.00 in0.0 mm 0.07 in1.8 mm
04:49 PM 36.4°F2.4°C 19.6°F-6.9°C 54% 4.0 mph WSW6.4 kmh WSW 14.0 mph22.5 kmh 30.10 in1019.3 mb 0.00 in0.0 mm 0.00 in0.0 mm 0.07 in1.8 mm
04:47 PM 36.5°F2.5°C 19.6°F-6.9°C 54% 3.0 mph WSW4.8 kmh WSW 14.0 mph22.5 kmh 30.10 in1019.3 mb 0.00 in0.0 mm 0.00 in0.0 mm 0.07 in1.8 mm
04:45 PM 36.5°F2.5°C 19.2°F-7.1°C 53% 2.0 mph SW3.2 kmh SW 15.0 mph24.1 kmh 30.10 in1019.3 mb 0.00 in0.0 mm 0.00 in0.0 mm 0.07 in1.8 mm
04:43 PM 36.6°F2.6°C 19.7°F-6.8°C 54% 9.0 mph WSW14.5 kmh WSW 15.0 mph24.1 kmh 30.09 in1019.0 mb 0.00 in0.0 mm 0.00 in0.0 mm 0.07 in1.8 mm
04:41 PM 36.6°F2.6°C 19.7°F-6.8°C 54% 2.0 mph SSE3.2 kmh SSE 15.0 mph24.1 kmh 30.09 in1019.0 mb 0.00 in0.0 mm 0.00 in0.0 mm 0.07 in1.8 mm
04:39 PM 36.6°F2.6°C 19.7°F-6.8°C 54% 1.0 mph WSW1.6 kmh WSW 15.0 mph24.1 kmh 30.09 in1019.0 mb 0.00 in0.0 mm 0.00 in0.0 mm 0.07 in1.8 mm
04:37 PM 36.6°F2.6°C 19.7°F-6.8°C 54% 4.0 mph WSW6.4 kmh WSW 15.0 mph24.1 kmh 30.10 in1019.3 mb 0.00 in0.0 mm 0.00 in0.0 mm 0.07 in1.8 mm
04:35 PM 36.7°F2.6°C 19.8°F-6.8°C 54% 2.0 mph SW3.2 kmh SW 15.0 mph24.1 kmh 30.10 in1019.3 mb 0.00 in0.0 mm 0.00 in0.0 mm 0.07 in1.8 mm
04:33 PM 36.8°F2.7°C 19.9°F-6.7°C 54% 6.0 mph S9.7 kmh S 15.0 mph24.1 kmh 30.10 in1019.3 mb 0.00 in0.0 mm 0.00 in0.0 mm 0.07 in1.8 mm
04:31 PM 36.8°F2.7°C 19.5°F-6.9°C 53% 1.0 mph WNW1.6 kmh WNW 15.0 mph24.1 kmh 30.09 in1019.0 mb 0.00 in0.0 mm 0.00 in0.0 mm 0.07 in1.8 mm
04:29 PM 36.8°F2.7°C 19.5°F-6.9°C 53% 3.0 mph WSW4.8 kmh WSW 15.0 mph24.1 kmh 30.10 in1019.3 mb 0.00 in0.0 mm 0.00 in0.0 mm 0.07 in1.8 mm
04:27 PM 36.8°F2.7°C 19.9°F-6.7°C 54% 5.0 mph WSW8.0 kmh WSW 15.0 mph24.1 kmh 30.10 in1019.3 mb 0.00 in0.0 mm 0.00 in0.0 mm 0.07 in1.8 mm
04:25 PM 36.8°F2.7°C 19.5°F-6.9°C 53% 5.0 mph S8.0 kmh S 12.0 mph19.3 kmh 30.09 in1019.0 mb 0.00 in0.0 mm 0.00 in0.0 mm 0.07 in1.8 mm
04:23 PM 36.8°F2.7°C 19.5°F-6.9°C 53% 5.0 mph SW8.0 kmh SW 12.0 mph19.3 kmh 30.09 in1019.0 mb 0.00 in0.0 mm 0.00 in0.0 mm 0.07 in1.8 mm
04:21 PM 36.9°F2.7°C 20.0°F-6.7°C 54% 5.0 mph WSW8.0 kmh WSW 12.0 mph19.3 kmh 30.09 in1019.0 mb 0.00 in0.0 mm 0.00 in0.0 mm 0.07 in1.8 mm
04:19 PM 37.0°F2.8°C 19.2°F-7.1°C 52% 3.0 mph W4.8 kmh W 12.0 mph19.3 kmh 30.09 in1019.0 mb 0.00 in0.0 mm 0.00 in0.0 mm 0.07 in1.8 mm
04:17 PM 37.0°F2.8°C 19.2°F-7.1°C 52% 7.0 mph WSW11.3 kmh WSW 12.0 mph19.3 kmh 30.09 in1019.0 mb 0.00 in0.0 mm 0.00 in0.0 mm 0.07 in1.8 mm
04:15 PM 37.0°F2.8°C 19.6°F-6.9°C 53% 2.0 mph SW3.2 kmh SW 12.0 mph19.3 kmh 30.09 in1019.0 mb 0.00 in0.0 mm 0.00 in0.0 mm 0.07 in1.8 mm
04:13 PM 37.1°F2.8°C 19.2°F-7.1°C 52% 3.0 mph W4.8 kmh W 15.0 mph24.1 kmh 30.09 in1019.0 mb 0.00 in0.0 mm 0.00 in0.0 mm 0.07 in1.8 mm
04:11 PM 37.1°F2.8°C 19.2°F-7.1°C 52% 3.0 mph WSW4.8 kmh WSW 15.0 mph24.1 kmh 30.09 in1019.0 mb 0.00 in0.0 mm 0.00 in0.0 mm 0.07 in1.8 mm
04:09 PM 37.1°F2.8°C 19.7°F-6.8°C 53% 3.0 mph WSW4.8 kmh WSW 15.0 mph24.1 kmh 30.09 in1019.0 mb 0.00 in0.0 mm 0.00 in0.0 mm 0.07 in1.8 mm
04:07 PM 37.2°F2.9°C 19.3°F-7.1°C 52% 3.0 mph W4.8 kmh W 15.0 mph24.1 kmh 30.09 in1019.0 mb 0.00 in0.0 mm 0.00 in0.0 mm 0.07 in1.8 mm
04:05 PM 37.2°F2.9°C 20.3°F-6.5°C 54% 7.0 mph WSW11.3 kmh WSW 15.0 mph24.1 kmh 30.09 in1019.0 mb 0.00 in0.0 mm 0.00 in0.0 mm 0.07 in1.8 mm
04:03 PM 37.3°F2.9°C 19.9°F-6.7°C 53% 2.0 mph SSW3.2 kmh SSW 15.0 mph24.1 kmh 30.09 in1019.0 mb 0.00 in0.0 mm 0.00 in0.0 mm 0.07 in1.8 mm
04:01 PM 37.3°F2.9°C 19.4°F-7.0°C 52% 10.0 mph SW16.1 kmh SW 15.0 mph24.1 kmh 30.09 in1019.0 mb 0.00 in0.0 mm 0.00 in0.0 mm 0.07 in1.8 mm
03:59 PM 37.3°F2.9°C 19.9°F-6.7°C 53% 9.0 mph SW14.5 kmh SW 15.0 mph24.1 kmh 30.09 in1019.0 mb 0.00 in0.0 mm 0.00 in0.0 mm 0.07 in1.8 mm
03:57 PM 37.3°F2.9°C 19.4°F-7.0°C 52% 8.0 mph WSW12.9 kmh WSW 15.0 mph24.1 kmh 30.09 in1019.0 mb 0.00 in0.0 mm 0.00 in0.0 mm 0.07 in1.8 mm
03:55 PM 37.2°F2.9°C 19.8°F-6.8°C 53% 11.0 mph WSW17.7 kmh WSW 15.0 mph24.1 kmh 30.09 in1019.0 mb 0.00 in0.0 mm 0.00 in0.0 mm 0.07 in1.8 mm
03:53 PM 37.2°F2.9°C 19.8°F-6.8°C 53% 3.0 mph SSW4.8 kmh SSW 13.0 mph20.9 kmh 30.09 in1019.0 mb 0.00 in0.0 mm 0.00 in0.0 mm 0.07 in1.8 mm
03:51 PM 37.2°F2.9°C 19.8°F-6.8°C 53% 2.0 mph W3.2 kmh W 12.0 mph19.3 kmh 30.09 in1019.0 mb 0.00 in0.0 mm 0.00 in0.0 mm 0.07 in1.8 mm
03:49 PM 37.1°F2.8°C 20.2°F-6.6°C 54% 3.0 mph WSW4.8 kmh WSW 15.0 mph24.1 kmh 30.09 in1019.0 mb 0.00 in0.0 mm 0.00 in0.0 mm 0.07 in1.8 mm
03:47 PM 37.1°F2.8°C 19.7°F-6.8°C 53% 6.0 mph SSW9.7 kmh SSW 15.0 mph24.1 kmh 30.09 in1019.0 mb 0.00 in0.0 mm 0.00 in0.0 mm 0.07 in1.8 mm
03:45 PM 37.1°F2.8°C 19.7°F-6.8°C 53% 5.0 mph WSW8.0 kmh WSW 15.0 mph24.1 kmh 30.09 in1019.0 mb 0.00 in0.0 mm 0.00 in0.0 mm 0.07 in1.8 mm
03:43 PM 37.0°F2.8°C 20.1°F-6.6°C 54% 4.0 mph WNW6.4 kmh WNW 15.0 mph24.1 kmh 30.09 in1019.0 mb 0.00 in0.0 mm 0.00 in0.0 mm 0.07 in1.8 mm
03:41 PM 37.1°F2.8°C 20.2°F-6.6°C 54% 1.0 mph SW1.6 kmh SW 15.0 mph24.1 kmh 30.09 in1019.0 mb 0.00 in0.0 mm 0.00 in0.0 mm 0.07 in1.8 mm
03:39 PM 37.1°F2.8°C 19.7°F-6.8°C 53% 7.0 mph WSW11.3 kmh WSW 15.0 mph24.1 kmh 30.09 in1019.0 mb 0.00 in0.0 mm 0.00 in0.0 mm 0.07 in1.8 mm
03:37 PM 37.1°F2.8°C 20.2°F-6.6°C 54% 3.0 mph SW4.8 kmh SW 15.0 mph24.1 kmh 30.09 in1019.0 mb 0.00 in0.0 mm 0.00 in0.0 mm 0.07 in1.8 mm
03:35 PM 37.1°F2.8°C 20.2°F-6.6°C 54% 4.0 mph WNW6.4 kmh WNW 15.0 mph24.1 kmh 30.09 in1019.0 mb 0.00 in0.0 mm 0.00 in0.0 mm 0.07 in1.8 mm
03:33 PM 37.1°F2.8°C 20.2°F-6.6°C 54% 2.0 mph WSW3.2 kmh WSW 15.0 mph24.1 kmh 30.09 in1019.0 mb 0.00 in0.0 mm 0.00 in0.0 mm 0.07 in1.8 mm
03:31 PM 37.1°F2.8°C 19.7°F-6.8°C 53% 4.0 mph W6.4 kmh W 15.0 mph24.1 kmh 30.09 in1019.0 mb 0.00 in0.0 mm 0.00 in0.0 mm 0.06 in1.5 mm
03:29 PM 37.2°F2.9°C 19.8°F-6.8°C 53% 4.0 mph SW6.4 kmh SW 15.0 mph24.1 kmh 30.09 in1019.0 mb 0.00 in0.0 mm 0.00 in0.0 mm 0.06 in1.5 mm
03:27 PM 37.2°F2.9°C 19.8°F-6.8°C 53% 6.0 mph SSW9.7 kmh SSW 15.0 mph24.1 kmh 30.09 in1019.0 mb 0.00 in0.0 mm 0.00 in0.0 mm 0.06 in1.5 mm
03:25 PM 37.2°F2.9°C 19.8°F-6.8°C 53% 3.0 mph WSW4.8 kmh WSW 15.0 mph24.1 kmh 30.09 in1019.0 mb 0.00 in0.0 mm 0.00 in0.0 mm 0.06 in1.5 mm
03:23 PM 37.2°F2.9°C 20.3°F-6.5°C 54% 3.0 mph WSW4.8 kmh WSW 15.0 mph24.1 kmh 30.09 in1019.0 mb 0.00 in0.0 mm 0.00 in0.0 mm 0.06 in1.5 mm
03:21 PM 37.3°F2.9°C 19.4°F-7.0°C 52% 4.0 mph WSW6.4 kmh WSW 15.0 mph24.1 kmh 30.09 in1019.0 mb 0.00 in0.0 mm 0.00 in0.0 mm 0.06 in1.5 mm
03:19 PM 37.3°F2.9°C 20.4°F-6.4°C 54% 3.0 mph W4.8 kmh W 15.0 mph24.1 kmh 30.09 in1019.0 mb 0.00 in0.0 mm 0.00 in0.0 mm 0.06 in1.5 mm
03:17 PM 37.3°F2.9°C 19.4°F-7.0°C 52% 2.0 mph SSW3.2 kmh SSW 15.0 mph24.1 kmh 30.09 in1019.0 mb 0.00 in0.0 mm 0.00 in0.0 mm 0.06 in1.5 mm
03:15 PM 37.3°F2.9°C 19.9°F-6.7°C 53% 1.0 mph WSW1.6 kmh WSW 15.0 mph24.1 kmh 30.09 in1019.0 mb 0.00 in0.0 mm 0.00 in0.0 mm 0.06 in1.5 mm
03:13 PM 37.3°F2.9°C 19.9°F-6.7°C 53% 5.0 mph WSW8.0 kmh WSW 15.0 mph24.1 kmh 30.09 in1019.0 mb 0.00 in0.0 mm 0.00 in0.0 mm 0.06 in1.5 mm
03:11 PM 37.3°F2.9°C 19.4°F-7.0°C 52% 4.0 mph W6.4 kmh W 15.0 mph24.1 kmh 30.09 in1019.0 mb 0.00 in0.0 mm 0.00 in0.0 mm 0.06 in1.5 mm
03:09 PM 37.3°F2.9°C 19.9°F-6.7°C 53% 6.0 mph W9.7 kmh W 11.0 mph17.7 kmh 30.09 in1019.0 mb 0.00 in0.0 mm 0.00 in0.0 mm 0.06 in1.5 mm
03:07 PM 37.3°F2.9°C 19.9°F-6.7°C 53% 4.0 mph SW6.4 kmh SW 11.0 mph17.7 kmh 30.09 in1019.0 mb 0.00 in0.0 mm 0.00 in0.0 mm 0.05 in1.3 mm
03:05 PM 37.3°F2.9°C 20.4°F-6.4°C 54% 3.0 mph WSW4.8 kmh WSW 11.0 mph17.7 kmh 30.09 in1019.0 mb 0.00 in0.0 mm 0.00 in0.0 mm 0.05 in1.3 mm
03:03 PM 37.2°F2.9°C 20.3°F-6.5°C 54% 2.0 mph W3.2 kmh W 11.0 mph17.7 kmh 30.10 in1019.3 mb 0.00 in0.0 mm 0.00 in0.0 mm 0.05 in1.3 mm
03:01 PM 37.2°F2.9°C 19.8°F-6.8°C 53% 7.0 mph W11.3 kmh W 9.0 mph14.5 kmh 30.10 in1019.3 mb 0.04 in1.0 mm 0.00 in0.0 mm 0.05 in1.3 mm
02:59 PM 37.2°F2.9°C 19.8°F-6.8°C 53% 4.0 mph WSW6.4 kmh WSW 10.0 mph16.1 kmh 30.10 in1019.3 mb 0.04 in1.0 mm 0.00 in0.0 mm 0.05 in1.3 mm
02:57 PM 37.2°F2.9°C 19.8°F-6.8°C 53% 2.0 mph WSW3.2 kmh WSW 10.0 mph16.1 kmh 30.10 in1019.3 mb 0.05 in1.3 mm 0.00 in0.0 mm 0.05 in1.3 mm
02:55 PM 37.2°F2.9°C 20.3°F-6.5°C 54% 4.0 mph W6.4 kmh W 10.0 mph16.1 kmh 30.10 in1019.3 mb 0.05 in1.3 mm 0.00 in0.0 mm 0.05 in1.3 mm
02:53 PM 37.2°F2.9°C 19.8°F-6.8°C 53% 2.0 mph WSW3.2 kmh WSW 10.0 mph16.1 kmh 30.10 in1019.3 mb 0.05 in1.3 mm 0.00 in0.0 mm 0.05 in1.3 mm
02:51 PM 37.3°F2.9°C 19.9°F-6.7°C 53% 2.0 mph W3.2 kmh W 10.0 mph16.1 kmh 30.10 in1019.3 mb 0.05 in1.3 mm 0.00 in0.0 mm 0.05 in1.3 mm
02:49 PM 37.3°F2.9°C 19.9°F-6.7°C 53% 4.0 mph WNW6.4 kmh WNW 13.0 mph20.9 kmh 30.10 in1019.3 mb 0.05 in1.3 mm 0.00 in0.0 mm 0.05 in1.3 mm
02:47 PM 37.3°F2.9°C 19.9°F-6.7°C 53% 2.0 mph SW3.2 kmh SW 13.0 mph20.9 kmh 30.10 in1019.3 mb 0.05 in1.3 mm 0.00 in0.0 mm 0.05 in1.3 mm
02:45 PM 37.3°F2.9°C 19.4°F-7.0°C 52% 4.0 mph S6.4 kmh S 13.0 mph20.9 kmh 30.10 in1019.3 mb 0.05 in1.3 mm 0.00 in0.0 mm 0.04 in1.0 mm
02:43 PM 37.4°F3.0°C 19.5°F-6.9°C 52% 3.0 mph SW4.8 kmh SW 13.0 mph20.9 kmh 30.10 in1019.3 mb 0.05 in1.3 mm 0.00 in0.0 mm 0.04 in1.0 mm
02:41 PM 37.3°F2.9°C 20.4°F-6.4°C 54% 7.0 mph W11.3 kmh W 13.0 mph20.9 kmh 30.10 in1019.3 mb 0.05 in1.3 mm 0.00 in0.0 mm 0.04 in1.0 mm
02:39 PM 37.2°F2.9°C 20.3°F-6.5°C 54% 3.0 mph SW4.8 kmh SW 13.0 mph20.9 kmh 30.10 in1019.3 mb 0.05 in1.3 mm 0.00 in0.0 mm 0.04 in1.0 mm
02:37 PM 37.0°F2.8°C 20.1°F-6.6°C 54% 3.0 mph W4.8 kmh W 13.0 mph20.9 kmh 30.10 in1019.3 mb 0.05 in1.3 mm 0.00 in0.0 mm 0.04 in1.0 mm
02:35 PM 36.9°F2.7°C 20.5°F-6.4°C 55% 2.0 mph SSW3.2 kmh SSW 13.0 mph20.9 kmh 30.10 in1019.3 mb 0.05 in1.3 mm 0.00 in0.0 mm 0.04 in1.0 mm
02:33 PM 36.8°F2.7°C 20.4°F-6.4°C 55% 4.0 mph SSW6.4 kmh SSW 13.0 mph20.9 kmh 30.10 in1019.3 mb 0.05 in1.3 mm 0.00 in0.0 mm 0.03 in0.8 mm
02:31 PM 36.7°F2.6°C 19.8°F-6.8°C 54% 2.0 mph SW3.2 kmh SW 13.0 mph20.9 kmh 30.10 in1019.3 mb 0.07 in1.8 mm 0.00 in0.0 mm 0.03 in0.8 mm
02:29 PM 36.7°F2.6°C 19.4°F-7.0°C 53% 5.0 mph S8.0 kmh S 13.0 mph20.9 kmh 30.10 in1019.3 mb 0.08 in2.0 mm 0.00 in0.0 mm 0.03 in0.8 mm
02:27 PM 36.7°F2.6°C 19.8°F-6.8°C 54% 4.0 mph W6.4 kmh W 13.0 mph20.9 kmh 30.10 in1019.3 mb 0.08 in2.0 mm 0.00 in0.0 mm 0.03 in0.8 mm
02:25 PM 36.7°F2.6°C 19.8°F-6.8°C 54% 2.0 mph W3.2 kmh W 13.0 mph20.9 kmh 30.10 in1019.3 mb 0.08 in2.0 mm 0.00 in0.0 mm 0.03 in0.8 mm
02:23 PM 36.6°F2.6°C 18.8°F-7.3°C 52% 3.0 mph SW4.8 kmh SW 13.0 mph20.9 kmh 30.10 in1019.3 mb 0.08 in2.0 mm 2.40 in61.0 mm 0.03 in0.8 mm
02:21 PM 36.5°F2.5°C 19.2°F-7.1°C 53% 4.0 mph WSW6.4 kmh WSW 13.0 mph20.9 kmh 30.10 in1019.3 mb 0.00 in0.0 mm 0.00 in0.0 mm 0.02 in0.5 mm
02:19 PM 36.5°F2.5°C 19.2°F-7.1°C 53% 6.0 mph W9.7 kmh W 13.0 mph20.9 kmh 30.10 in1019.3 mb 0.00 in0.0 mm 0.00 in0.0 mm 0.02 in0.5 mm
02:17 PM 36.3°F2.4°C 18.5°F-7.5°C 52% 4.0 mph WSW6.4 kmh WSW 13.0 mph20.9 kmh 30.10 in1019.3 mb 0.00 in0.0 mm 0.00 in0.0 mm 0.02 in0.5 mm
02:15 PM 36.2°F2.3°C 18.9°F-7.3°C 53% 4.0 mph SW6.4 kmh SW 13.0 mph20.9 kmh 30.10 in1019.3 mb 0.00 in0.0 mm 0.00 in0.0 mm 0.01 in0.3 mm
02:13 PM 36.1°F2.3°C 18.8°F-7.3°C 53% 4.0 mph WSW6.4 kmh WSW 13.0 mph20.9 kmh 30.10 in1019.3 mb 0.00 in0.0 mm 0.00 in0.0 mm 0.01 in0.3 mm
02:11 PM 36.0°F2.2°C 18.7°F-7.4°C 53% 3.0 mph WSW4.8 kmh WSW 13.0 mph20.9 kmh 30.11 in1019.6 mb 0.00 in0.0 mm 0.00 in0.0 mm 0.01 in0.3 mm
02:09 PM 35.9°F2.2°C 18.6°F-7.4°C 53% 3.0 mph WSW4.8 kmh WSW 13.0 mph20.9 kmh 30.10 in1019.3 mb 0.00 in0.0 mm 0.00 in0.0 mm 0.01 in0.3 mm
02:07 PM 35.8°F2.1°C 19.0°F-7.2°C 54% 4.0 mph SW6.4 kmh SW 13.0 mph20.9 kmh 30.11 in1019.6 mb 0.00 in0.0 mm 0.00 in0.0 mm 0.01 in0.3 mm
02:05 PM 35.7°F2.1°C 18.9°F-7.3°C 54% 6.0 mph SW9.7 kmh SW 13.0 mph20.9 kmh 30.10 in1019.3 mb 0.00 in0.0 mm 0.00 in0.0 mm 0.01 in0.3 mm
02:03 PM 35.7°F2.1°C 18.9°F-7.3°C 54% 7.0 mph WNW11.3 kmh WNW 13.0 mph20.9 kmh 30.11 in1019.6 mb 0.00 in0.0 mm 0.00 in0.0 mm 0.01 in0.3 mm
02:01 PM 35.7°F2.1°C 18.0°F-7.8°C 52% 1.0 mph WSW1.6 kmh WSW 13.0 mph20.9 kmh 30.11 in1019.6 mb 0.00 in0.0 mm 0.00 in0.0 mm 0.01 in0.3 mm
01:59 PM 35.6°F2.0°C 19.3°F-7.1°C 55% 5.0 mph WSW8.0 kmh WSW 13.0 mph20.9 kmh 30.11 in1019.6 mb 0.00 in0.0 mm 0.00 in0.0 mm 0.01 in0.3 mm
01:57 PM 35.5°F1.9°C 19.2°F-7.1°C 55% 3.0 mph W4.8 kmh W 13.0 mph20.9 kmh 30.11 in1019.6 mb 0.00 in0.0 mm 0.00 in0.0 mm 0.01 in0.3 mm
01:55 PM 35.4°F1.9°C 18.6°F-7.4°C 54% 2.0 mph WSW3.2 kmh WSW 13.0 mph20.9 kmh 30.11 in1019.6 mb 0.00 in0.0 mm 0.00 in0.0 mm 0.01 in0.3 mm
01:53 PM 35.4°F1.9°C 18.2°F-7.7°C 53% 4.0 mph WSW6.4 kmh WSW 13.0 mph20.9 kmh 30.11 in1019.6 mb 0.00 in0.0 mm 0.00 in0.0 mm 0.01 in0.3 mm
01:51 PM 35.3°F1.8°C 18.5°F-7.5°C 54% 9.0 mph WNW14.5 kmh WNW 13.0 mph20.9 kmh 30.11 in1019.6 mb 0.00 in0.0 mm 0.00 in0.0 mm 0.01 in0.3 mm
01:49 PM 35.3°F1.8°C 18.5°F-7.5°C 54% 4.0 mph SW6.4 kmh SW 10.0 mph16.1 kmh 30.12 in1020.0 mb 0.00 in0.0 mm 0.00 in0.0 mm 0.01 in0.3 mm
01:47 PM 35.1°F1.7°C 19.3°F-7.1°C 56% 3.0 mph SW4.8 kmh SW 18.0 mph29.0 kmh 30.12 in1020.0 mb 0.00 in0.0 mm 0.00 in0.0 mm 0.01 in0.3 mm
01:45 PM 34.9°F1.6°C 18.6°F-7.4°C 55% 4.0 mph S6.4 kmh S 18.0 mph29.0 kmh 30.12 in1020.0 mb 0.00 in0.0 mm 0.00 in0.0 mm 0.01 in0.3 mm
01:43 PM 34.7°F1.5°C 18.4°F-7.6°C 55% 2.0 mph SW3.2 kmh SW 18.0 mph29.0 kmh 30.12 in1020.0 mb 0.00 in0.0 mm 0.00 in0.0 mm 0.01 in0.3 mm
01:41 PM 34.5°F1.4°C 18.7°F-7.4°C 56% 4.0 mph W6.4 kmh W 18.0 mph29.0 kmh 30.13 in1020.3 mb 0.00 in0.0 mm 0.00 in0.0 mm 0.01 in0.3 mm
01:39 PM 34.3°F1.3°C 18.5°F-7.5°C 56% 7.0 mph WSW11.3 kmh WSW 18.0 mph29.0 kmh 30.13 in1020.3 mb 0.00 in0.0 mm 0.00 in0.0 mm 0.01 in0.3 mm
01:37 PM 34.2°F1.2°C 17.5°F-8.1°C 54% 2.0 mph WNW3.2 kmh WNW 18.0 mph29.0 kmh 30.13 in1020.3 mb 0.00 in0.0 mm 0.00 in0.0 mm 0.01 in0.3 mm
01:35 PM 34.1°F1.2°C 18.3°F-7.6°C 56% 6.0 mph WNW9.7 kmh WNW 18.0 mph29.0 kmh 30.13 in1020.3 mb 0.00 in0.0 mm 0.00 in0.0 mm 0.01 in0.3 mm
01:33 PM 34.0°F1.1°C 17.3°F-8.2°C 54% 3.0 mph S4.8 kmh S 18.0 mph29.0 kmh 30.14 in1020.7 mb 0.00 in0.0 mm 0.00 in0.0 mm 0.01 in0.3 mm
01:31 PM 33.9°F1.1°C 17.2°F-8.2°C 54% 6.0 mph SSW9.7 kmh SSW 18.0 mph29.0 kmh 30.14 in1020.7 mb 0.00 in0.0 mm 0.00 in0.0 mm 0.01 in0.3 mm
01:29 PM 33.9°F1.1°C 17.2°F-8.2°C 54% 4.0 mph WSW6.4 kmh WSW 18.0 mph29.0 kmh 30.14 in1020.7 mb 0.00 in0.0 mm 0.00 in0.0 mm 0.01 in0.3 mm
01:27 PM 33.9°F1.1°C 17.2°F-8.2°C 54% 12.0 mph NW19.3 kmh NW 14.0 mph22.5 kmh 30.14 in1020.7 mb 0.00 in0.0 mm 0.00 in0.0 mm 0.01 in0.3 mm
01:25 PM 33.8°F1.0°C 17.6°F-8.0°C 55% 4.0 mph SW6.4 kmh SW 13.0 mph20.9 kmh 30.14 in1020.7 mb 0.00 in0.0 mm 0.00 in0.0 mm 0.01 in0.3 mm
01:23 PM 33.8°F1.0°C 18.1°F-7.7°C 56% 2.0 mph WNW3.2 kmh WNW 13.0 mph20.9 kmh 30.14 in1020.7 mb 0.00 in0.0 mm 0.00 in0.0 mm 0.00 in0.0 mm
01:21 PM 33.6°F0.9°C 17.9°F-7.8°C 56% 5.0 mph NW8.0 kmh NW 13.0 mph20.9 kmh 30.14 in1020.7 mb 0.00 in0.0 mm 0.00 in0.0 mm 0.00 in0.0 mm
01:19 PM 33.4°F0.8°C 17.2°F-8.2°C 55% 2.0 mph W3.2 kmh W 13.0 mph20.9 kmh 30.14 in1020.7 mb 0.00 in0.0 mm 0.00 in0.0 mm 0.00 in0.0 mm
01:17 PM 33.3°F0.7°C 17.1°F-8.3°C 55% 2.0 mph SW3.2 kmh SW 13.0 mph20.9 kmh 30.14 in1020.7 mb 0.00 in0.0 mm 0.00 in0.0 mm 0.00 in0.0 mm
01:15 PM 33.2°F0.7°C 17.1°F-8.3°C 55% 2.0 mph W3.2 kmh W 12.0 mph19.3 kmh 30.14 in1020.7 mb 0.00 in0.0 mm 0.00 in0.0 mm 0.00 in0.0 mm
01:13 PM 33.2°F0.7°C 17.5°F-8.1°C 56% 3.0 mph WSW4.8 kmh WSW 12.0 mph19.3 kmh 30.14 in1020.7 mb 0.00 in0.0 mm 0.00 in0.0 mm 0.00 in0.0 mm
01:11 PM 33.2°F0.7°C 17.1°F-8.3°C 55% 5.0 mph SW8.0 kmh SW 12.0 mph19.3 kmh 30.14 in1020.7 mb 0.00 in0.0 mm 0.00 in0.0 mm 0.00 in0.0 mm
01:09 PM 33.1°F0.6°C 17.9°F-7.8°C 57% 4.0 mph W6.4 kmh W 11.0 mph17.7 kmh 30.14 in1020.7 mb 0.00 in0.0 mm 0.00 in0.0 mm 0.00 in0.0 mm
01:07 PM 32.9°F0.5°C 17.2°F-8.2°C 56% 2.0 mph NW3.2 kmh NW 13.0 mph20.9 kmh 30.15 in1021.0 mb 0.00 in0.0 mm 0.00 in0.0 mm 0.00 in0.0 mm
01:05 PM 32.8°F0.4°C 17.6°F-8.0°C 57% 3.0 mph W4.8 kmh W 13.0 mph20.9 kmh 30.15 in1021.0 mb 0.00 in0.0 mm 0.00 in0.0 mm 0.00 in0.0 mm
01:03 PM 32.7°F0.4°C 17.5°F-8.1°C 57% 4.0 mph WNW6.4 kmh WNW 13.0 mph20.9 kmh 30.15 in1021.0 mb 0.00 in0.0 mm 0.00 in0.0 mm 0.00 in0.0 mm
01:01 PM 32.5°F0.3°C 16.9°F-8.4°C 56% 1.0 mph WSW1.6 kmh WSW 13.0 mph20.9 kmh 30.15 in1021.0 mb 0.00 in0.0 mm 0.00 in0.0 mm 0.00 in0.0 mm
12:59 PM 32.4°F0.2°C 16.8°F-8.4°C 56% 2.0 mph W3.2 kmh W 13.0 mph20.9 kmh 30.15 in1021.0 mb 0.00 in0.0 mm 0.00 in0.0 mm 0.00 in0.0 mm
12:57 PM 32.4°F0.2°C 17.2°F-8.2°C 57% 4.0 mph SW6.4 kmh SW 13.0 mph20.9 kmh 30.15 in1021.0 mb 0.00 in0.0 mm 0.00 in0.0 mm 0.00 in0.0 mm
12:55 PM 32.2°F0.1°C 17.0°F-8.3°C 57% 3.0 mph SE4.8 kmh SE 13.0 mph20.9 kmh 30.16 in1021.3 mb 0.00 in0.0 mm 0.00 in0.0 mm 0.00 in0.0 mm
12:53 PM 32.0°F0.0°C 16.8°F-8.4°C 57% 5.0 mph SW8.0 kmh SW 13.0 mph20.9 kmh 30.16 in1021.3 mb 0.00 in0.0 mm 0.00 in0.0 mm 0.00 in0.0 mm
12:51 PM 31.9°F-0.1°C 16.3°F-8.7°C 56% 3.0 mph WSW4.8 kmh WSW 13.0 mph20.9 kmh 30.15 in1021.0 mb 0.00 in0.0 mm 0.00 in0.0 mm 0.00 in0.0 mm
12:49 PM 31.9°F-0.1°C 16.3°F-8.7°C 56% 5.0 mph SSW8.0 kmh SSW 13.0 mph20.9 kmh 30.16 in1021.3 mb 0.00 in0.0 mm 0.00 in0.0 mm 0.00 in0.0 mm
12:47 PM 31.9°F-0.1°C 16.7°F-8.5°C 57% 7.0 mph WSW11.3 kmh WSW 13.0 mph20.9 kmh 30.16 in1021.3 mb 0.00 in0.0 mm 0.00 in0.0 mm 0.00 in0.0 mm
12:45 PM 31.9°F-0.1°C 16.3°F-8.7°C 56% 10.0 mph WNW16.1 kmh WNW 13.0 mph20.9 kmh 30.16 in1021.3 mb 0.00 in0.0 mm 0.00 in0.0 mm 0.00 in0.0 mm
12:43 PM 31.8°F-0.1°C 16.6°F-8.6°C 57% 11.0 mph WSW17.7 kmh WSW 13.0 mph20.9 kmh 30.16 in1021.3 mb 0.00 in0.0 mm 0.00 in0.0 mm 0.00 in0.0 mm
12:41 PM 31.8°F-0.1°C 17.1°F-8.3°C 58% 6.0 mph SW9.7 kmh SW 13.0 mph20.9 kmh 30.16 in1021.3 mb 0.00 in0.0 mm 0.00 in0.0 mm 0.00 in0.0 mm
12:39 PM 31.7°F-0.2°C 16.5°F-8.6°C 57% 7.0 mph WSW11.3 kmh WSW 13.0 mph20.9 kmh 30.16 in1021.3 mb 0.00 in0.0 mm 0.00 in0.0 mm 0.00 in0.0 mm
12:37 PM 31.6°F-0.2°C 16.0°F-8.9°C 56% 7.0 mph WSW11.3 kmh WSW 12.0 mph19.3 kmh 30.16 in1021.3 mb 0.00 in0.0 mm 0.00 in0.0 mm 0.00 in0.0 mm
12:35 PM 31.6°F-0.2°C 16.0°F-8.9°C 56% 6.0 mph W9.7 kmh W 10.0 mph16.1 kmh 30.16 in1021.3 mb 0.00 in0.0 mm 0.00 in0.0 mm 0.00 in0.0 mm
12:33 PM 31.6°F-0.2°C 16.5°F-8.6°C 57% 5.0 mph WSW8.0 kmh WSW 11.0 mph17.7 kmh 30.16 in1021.3 mb 0.00 in0.0 mm 0.00 in0.0 mm 0.00 in0.0 mm
12:31 PM 31.5°F-0.3°C 16.4°F-8.7°C 57% 3.0 mph WSW4.8 kmh WSW 11.0 mph17.7 kmh 30.17 in1021.7 mb 0.00 in0.0 mm 0.00 in0.0 mm 0.00 in0.0 mm
12:29 PM 31.4°F-0.3°C 16.3°F-8.7°C 57% 2.0 mph W3.2 kmh W 11.0 mph17.7 kmh 30.17 in1021.7 mb 0.00 in0.0 mm 0.00 in0.0 mm 0.00 in0.0 mm
12:27 PM 31.4°F-0.3°C 16.3°F-8.7°C 57% 3.0 mph W4.8 kmh W 11.0 mph17.7 kmh 30.17 in1021.7 mb 0.00 in0.0 mm 0.00 in0.0 mm 0.00 in0.0 mm
12:25 PM 31.3°F-0.4°C 16.2°F-8.8°C 57% 2.0 mph WSW3.2 kmh WSW 11.0 mph17.7 kmh 30.17 in1021.7 mb 0.00 in0.0 mm 0.00 in0.0 mm 0.00 in0.0 mm
12:23 PM 31.2°F-0.4°C 16.1°F-8.8°C 57% 2.0 mph SSW3.2 kmh SSW 13.0 mph20.9 kmh 30.17 in1021.7 mb 0.00 in0.0 mm 0.00 in0.0 mm 0.00 in0.0 mm
12:21 PM 31.1°F-0.5°C 16.0°F-8.9°C 57% 1.0 mph SW1.6 kmh SW 13.0 mph20.9 kmh 30.17 in1021.7 mb 0.00 in0.0 mm 0.00 in0.0 mm 0.00 in0.0 mm
12:19 PM 31.1°F-0.5°C 16.4°F-8.7°C 58% 8.0 mph WSW12.9 kmh WSW 13.0 mph20.9 kmh 30.17 in1021.7 mb 0.00 in0.0 mm 0.00 in0.0 mm 0.00 in0.0 mm
12:17 PM 31.0°F-0.6°C 16.8°F-8.4°C 59% 4.0 mph W6.4 kmh W 13.0 mph20.9 kmh 30.17 in1021.7 mb 0.00 in0.0 mm 0.00 in0.0 mm 0.00 in0.0 mm
12:15 PM 30.9°F-0.6°C 15.8°F-9.0°C 57% 5.0 mph SSW8.0 kmh SSW 13.0 mph20.9 kmh 30.17 in1021.7 mb 0.00 in0.0 mm 0.00 in0.0 mm 0.00 in0.0 mm
12:13 PM 30.9°F-0.6°C 16.2°F-8.8°C 58% 8.0 mph WSW12.9 kmh WSW 13.0 mph20.9 kmh 30.17 in1021.7 mb 0.00 in0.0 mm 0.00 in0.0 mm 0.00 in0.0 mm
12:11 PM 30.9°F-0.6°C 16.2°F-8.8°C 58% 3.0 mph SW4.8 kmh SW 13.0 mph20.9 kmh 30.18 in1022.0 mb 0.00 in0.0 mm 0.00 in0.0 mm 0.00 in0.0 mm
12:09 PM 30.8°F-0.7°C 16.1°F-8.8°C 58% 4.0 mph WSW6.4 kmh WSW 13.0 mph20.9 kmh 30.18 in1022.0 mb 0.00 in0.0 mm 0.00 in0.0 mm 0.00 in0.0 mm
12:07 PM 30.8°F-0.7°C 15.7°F-9.1°C 57% 2.0 mph WSW3.2 kmh WSW 13.0 mph20.9 kmh 30.18 in1022.0 mb 0.00 in0.0 mm 0.00 in0.0 mm 0.00 in0.0 mm
12:05 PM 30.7°F-0.7°C 16.0°F-8.9°C 58% 7.0 mph WSW11.3 kmh WSW 13.0 mph20.9 kmh 30.18 in1022.0 mb 0.00 in0.0 mm 0.00 in0.0 mm 0.00 in0.0 mm
12:03 PM 30.8°F-0.7°C 15.7°F-9.1°C 57% 2.0 mph SSW3.2 kmh SSW 12.0 mph19.3 kmh 30.18 in1022.0 mb 0.00 in0.0 mm 0.00 in0.0 mm 0.00 in0.0 mm
12:01 PM 30.7°F-0.7°C 15.6°F-9.1°C 57% 5.0 mph SSE8.0 kmh SSE 12.0 mph19.3 kmh 30.18 in1022.0 mb 0.00 in0.0 mm 0.00 in0.0 mm 0.00 in0.0 mm
11:59 AM 30.7°F-0.7°C 16.0°F-8.9°C 58% 8.0 mph WSW12.9 kmh WSW 13.0 mph20.9 kmh 30.18 in1022.0 mb 0.00 in0.0 mm 0.00 in0.0 mm 0.00 in0.0 mm
11:57 AM 30.5°F-0.8°C 15.9°F-8.9°C 58% 7.0 mph W11.3 kmh W 13.0 mph20.9 kmh 30.18 in1022.0 mb 0.00 in0.0 mm 0.00 in0.0 mm 0.00 in0.0 mm
11:55 AM 30.3°F-0.9°C 15.7°F-9.1°C 58% 4.0 mph WSW6.4 kmh WSW 13.0 mph20.9 kmh 30.18 in1022.0 mb 0.00 in0.0 mm 0.00 in0.0 mm 0.00 in0.0 mm
11:53 AM 30.2°F-1.0°C 15.6°F-9.1°C 58% 12.0 mph S19.3 kmh S 13.0 mph20.9 kmh 30.18 in1022.0 mb 0.00 in0.0 mm 0.00 in0.0 mm 0.00 in0.0 mm
11:51 AM 30.1°F-1.1°C 15.9°F-8.9°C 59% 7.0 mph S11.3 kmh S 13.0 mph20.9 kmh 30.18 in1022.0 mb 0.00 in0.0 mm 0.00 in0.0 mm 0.00 in0.0 mm
11:49 AM 29.9°F-1.2°C 15.7°F-9.1°C 59% 7.0 mph SW11.3 kmh SW 13.0 mph20.9 kmh 30.18 in1022.0 mb 0.00 in0.0 mm 0.00 in0.0 mm 0.00 in0.0 mm
11:47 AM 29.8°F-1.2°C 15.6°F-9.1°C 59% 4.0 mph W6.4 kmh W 13.0 mph20.9 kmh 30.18 in1022.0 mb 0.00 in0.0 mm 0.00 in0.0 mm 0.00 in0.0 mm
11:45 AM 29.8°F-1.2°C 15.6°F-9.1°C 59% 2.0 mph WNW3.2 kmh WNW 13.0 mph20.9 kmh 30.18 in1022.0 mb 0.00 in0.0 mm 0.00 in0.0 mm 0.00 in0.0 mm
11:43 AM 29.7°F-1.3°C 15.9°F-8.9°C 60% 3.0 mph WNW4.8 kmh WNW 13.0 mph20.9 kmh 30.18 in1022.0 mb 0.00 in0.0 mm 0.00 in0.0 mm 0.00 in0.0 mm
11:41 AM 29.7°F-1.3°C 15.5°F-9.2°C 59% 2.0 mph SW3.2 kmh SW 13.0 mph20.9 kmh 30.18 in1022.0 mb 0.00 in0.0 mm 0.00 in0.0 mm 0.00 in0.0 mm
11:39 AM 29.6°F-1.3°C 16.3°F-8.7°C 61% 13.0 mph WSW20.9 kmh WSW 13.0 mph20.9 kmh 30.18 in1022.0 mb 0.00 in0.0 mm 0.00 in0.0 mm 0.00 in0.0 mm
11:37 AM 29.5°F-1.4°C 15.8°F-9.0°C 60% 6.0 mph S9.7 kmh S 12.0 mph19.3 kmh 30.18 in1022.0 mb 0.00 in0.0 mm 0.00 in0.0 mm 0.00 in0.0 mm
11:35 AM 29.5°F-1.4°C 15.8°F-9.0°C 60% 5.0 mph SW8.0 kmh SW 12.0 mph19.3 kmh 30.18 in1022.0 mb 0.00 in0.0 mm 0.00 in0.0 mm 0.00 in0.0 mm
11:33 AM 29.3°F-1.5°C 15.6°F-9.1°C 60% 2.0 mph WSW3.2 kmh WSW 12.0 mph19.3 kmh 30.18 in1022.0 mb 0.00 in0.0 mm 0.00 in0.0 mm 0.00 in0.0 mm
11:31 AM 29.2°F-1.6°C 15.5°F-9.2°C 60% 6.0 mph SW9.7 kmh SW 12.0 mph19.3 kmh 30.18 in1022.0 mb 0.00 in0.0 mm 0.00 in0.0 mm 0.00 in0.0 mm
11:29 AM 29.0°F-1.7°C 15.3°F-9.3°C 60% 3.0 mph WSW4.8 kmh WSW 12.0 mph19.3 kmh 30.18 in1022.0 mb 0.00 in0.0 mm 0.00 in0.0 mm 0.00 in0.0 mm
11:27 AM 28.9°F-1.7°C 15.2°F-9.3°C 60% 2.0 mph WSW3.2 kmh WSW 12.0 mph19.3 kmh 30.19 in1022.4 mb 0.00 in0.0 mm 0.00 in0.0 mm 0.00 in0.0 mm
11:25 AM 28.8°F-1.8°C 15.1°F-9.4°C 60% 3.0 mph W4.8 kmh W 12.0 mph19.3 kmh 30.19 in1022.4 mb 0.00 in0.0 mm 0.00 in0.0 mm 0.00 in0.0 mm
11:23 AM 28.7°F-1.8°C 15.4°F-9.2°C 61% 2.0 mph WSW3.2 kmh WSW 12.0 mph19.3 kmh 30.19 in1022.4 mb 0.00 in0.0 mm 0.00 in0.0 mm 0.00 in0.0 mm
11:21 AM 28.5°F-1.9°C 15.2°F-9.3°C 61% 4.0 mph SSW6.4 kmh SSW 12.0 mph19.3 kmh 30.19 in1022.4 mb 0.00 in0.0 mm 0.00 in0.0 mm 0.00 in0.0 mm
11:19 AM 28.4°F-2.0°C 15.1°F-9.4°C 61% 6.0 mph WSW9.7 kmh WSW 11.0 mph17.7 kmh 30.19 in1022.4 mb 0.00 in0.0 mm 0.00 in0.0 mm 0.00 in0.0 mm
11:17 AM 28.3°F-2.1°C 14.6°F-9.7°C 60% 4.0 mph W6.4 kmh W 11.0 mph17.7 kmh 30.19 in1022.4 mb 0.00 in0.0 mm 0.00 in0.0 mm 0.00 in0.0 mm
11:15 AM 28.2°F-2.1°C 15.3°F-9.3°C 62% 4.0 mph SW6.4 kmh SW 11.0 mph17.7 kmh 30.19 in1022.4 mb 0.00 in0.0 mm 0.00 in0.0 mm 0.00 in0.0 mm
11:13 AM 28.0°F-2.2°C 14.8°F-9.6°C 61% 2.0 mph WNW3.2 kmh WNW 11.0 mph17.7 kmh 30.19 in1022.4 mb 0.00 in0.0 mm 0.00 in0.0 mm 0.00 in0.0 mm
11:11 AM 28.0°F-2.2°C 14.8°F-9.6°C 61% 3.0 mph WNW4.8 kmh WNW 11.0 mph17.7 kmh 30.19 in1022.4 mb 0.00 in0.0 mm 0.00 in0.0 mm 0.00 in0.0 mm
11:09 AM 27.9°F-2.3°C 15.1°F-9.4°C 62% 1.0 mph WSW1.6 kmh WSW 11.0 mph17.7 kmh 30.19 in1022.4 mb 0.00 in0.0 mm 0.00 in0.0 mm 0.00 in0.0 mm
11:07 AM 27.8°F-2.3°C 15.0°F-9.4°C 62% 4.0 mph WSW6.4 kmh WSW 11.0 mph17.7 kmh 30.19 in1022.4 mb 0.00 in0.0 mm 0.00 in0.0 mm 0.00 in0.0 mm
11:05 AM 27.6°F-2.4°C 14.8°F-9.6°C 62% 5.0 mph SW8.0 kmh SW 11.0 mph17.7 kmh 30.19 in1022.4 mb 0.00 in0.0 mm 0.00 in0.0 mm 0.00 in0.0 mm
11:03 AM 27.5°F-2.5°C 14.7°F-9.6°C 62% 4.0 mph W6.4 kmh W 11.0 mph17.7 kmh 30.19 in1022.4 mb 0.00 in0.0 mm 0.00 in0.0 mm 0.00 in0.0 mm
11:01 AM 27.3°F-2.6°C 14.9°F-9.5°C 63% 2.0 mph WSW3.2 kmh WSW 11.0 mph17.7 kmh 30.19 in1022.4 mb 0.00 in0.0 mm 0.00 in0.0 mm 0.00 in0.0 mm
10:59 AM 27.2°F-2.7°C 14.4°F-9.8°C 62% 3.0 mph SW4.8 kmh SW 11.0 mph17.7 kmh 30.19 in1022.4 mb 0.00 in0.0 mm 0.00 in0.0 mm 0.00 in0.0 mm
10:57 AM 27.1°F-2.7°C 14.7°F-9.6°C 63% 2.0 mph WSW3.2 kmh WSW 11.0 mph17.7 kmh 30.19 in1022.4 mb 0.00 in0.0 mm 0.00 in0.0 mm 0.00 in0.0 mm
10:55 AM 26.9°F-2.8°C 14.9°F-9.5°C 64% 2.0 mph WNW3.2 kmh WNW 11.0 mph17.7 kmh 30.19 in1022.4 mb 0.00 in0.0 mm 0.00 in0.0 mm 0.00 in0.0 mm
10:53 AM 26.7°F-2.9°C 14.3°F-9.8°C 63% 7.0 mph WSW11.3 kmh WSW 11.0 mph17.7 kmh 30.19 in1022.4 mb 0.00 in0.0 mm 0.00 in0.0 mm 0.00 in0.0 mm
10:51 AM 26.6°F-3.0°C 14.6°F-9.7°C 64% 5.0 mph SW8.0 kmh SW 11.0 mph17.7 kmh 30.19 in1022.4 mb 0.00 in0.0 mm 0.00 in0.0 mm 0.00 in0.0 mm
10:49 AM 26.5°F-3.1°C 14.5°F-9.7°C 64% 4.0 mph WSW6.4 kmh WSW 11.0 mph17.7 kmh 30.20 in1022.7 mb 0.00 in0.0 mm 0.00 in0.0 mm 0.00 in0.0 mm
10:47 AM 26.3°F-3.2°C 14.3°F-9.8°C 64% 6.0 mph WNW9.7 kmh WNW 11.0 mph17.7 kmh 30.19 in1022.4 mb 0.00 in0.0 mm 0.00 in0.0 mm 0.00 in0.0 mm
10:45 AM 26.2°F-3.2°C 14.6°F-9.7°C 65% 1.0 mph WNW1.6 kmh WNW 14.0 mph22.5 kmh 30.19 in1022.4 mb 0.00 in0.0 mm 0.00 in0.0 mm 0.00 in0.0 mm
10:43 AM 26.1°F-3.3°C 14.5°F-9.7°C 65% 2.0 mph SW3.2 kmh SW 14.0 mph22.5 kmh 30.20 in1022.7 mb 0.00 in0.0 mm 0.00 in0.0 mm 0.00 in0.0 mm
10:41 AM 26.0°F-3.3°C 14.4°F-9.8°C 65% 3.0 mph WSW4.8 kmh WSW 14.0 mph22.5 kmh 30.20 in1022.7 mb 0.00 in0.0 mm 0.00 in0.0 mm 0.00 in0.0 mm
10:39 AM 25.9°F-3.4°C 14.3°F-9.8°C 65% 3.0 mph NW4.8 kmh NW 14.0 mph22.5 kmh 30.19 in1022.4 mb 0.00 in0.0 mm 0.00 in0.0 mm 0.00 in0.0 mm
10:37 AM 25.8°F-3.4°C 13.9°F-10.1°C 64% 2.0 mph W3.2 kmh W 14.0 mph22.5 kmh 30.19 in1022.4 mb 0.00 in0.0 mm 0.00 in0.0 mm 0.00 in0.0 mm
10:35 AM 25.8°F-3.4°C 13.9°F-10.1°C 64% 4.0 mph SW6.4 kmh SW 16.0 mph25.7 kmh 30.20 in1022.7 mb 0.00 in0.0 mm 0.00 in0.0 mm 0.00 in0.0 mm
10:33 AM 25.7°F-3.5°C 14.1°F-9.9°C 65% 3.0 mph W4.8 kmh W 16.0 mph25.7 kmh 30.20 in1022.7 mb 0.00 in0.0 mm 0.00 in0.0 mm 0.00 in0.0 mm
10:31 AM 25.7°F-3.5°C 14.5°F-9.7°C 66% 3.0 mph W4.8 kmh W 16.0 mph25.7 kmh 30.20 in1022.7 mb 0.00 in0.0 mm 0.00 in0.0 mm 0.00 in0.0 mm
10:29 AM 25.6°F-3.6°C 13.7°F-10.2°C 64% 4.0 mph S6.4 kmh S 16.0 mph25.7 kmh 30.20 in1022.7 mb 0.00 in0.0 mm 0.00 in0.0 mm 0.00 in0.0 mm
10:27 AM 25.6°F-3.6°C 14.0°F-10.0°C 65% 3.0 mph WNW4.8 kmh WNW 16.0 mph25.7 kmh 30.20 in1022.7 mb 0.00 in0.0 mm 0.00 in0.0 mm 0.00 in0.0 mm
10:25 AM 25.6°F-3.6°C 14.0°F-10.0°C 65% 6.0 mph SSW9.7 kmh SSW 16.0 mph25.7 kmh 30.20 in1022.7 mb 0.00 in0.0 mm 0.00 in0.0 mm 0.00 in0.0 mm
10:23 AM 25.6°F-3.6°C 14.0°F-10.0°C 65% 4.0 mph W6.4 kmh W 16.0 mph25.7 kmh 30.20 in1022.7 mb 0.00 in0.0 mm 0.00 in0.0 mm 0.00 in0.0 mm
10:21 AM 25.5°F-3.6°C 13.9°F-10.1°C 65% 2.0 mph NW3.2 kmh NW 16.0 mph25.7 kmh 30.20 in1022.7 mb 0.00 in0.0 mm 0.00 in0.0 mm 0.00 in0.0 mm
10:19 AM 25.5°F-3.6°C 13.9°F-10.1°C 65% 2.0 mph SE3.2 kmh SE 16.0 mph25.7 kmh 30.20 in1022.7 mb 0.00 in0.0 mm 0.00 in0.0 mm 0.00 in0.0 mm
10:17 AM 25.5°F-3.6°C 13.9°F-10.1°C 65% 10.0 mph SSE16.1 kmh SSE 16.0 mph25.7 kmh 30.20 in1022.7 mb 0.00 in0.0 mm 0.00 in0.0 mm 0.00 in0.0 mm
10:15 AM 25.5°F-3.6°C 13.9°F-10.1°C 65% 9.0 mph SSW14.5 kmh SSW 15.0 mph24.1 kmh 30.21 in1023.0 mb 0.00 in0.0 mm 0.00 in0.0 mm 0.00 in0.0 mm
10:13 AM 25.4°F-3.7°C 13.9°F-10.1°C 65% 10.0 mph SW16.1 kmh SW 15.0 mph24.1 kmh 30.21 in1023.0 mb 0.00 in0.0 mm 0.00 in0.0 mm 0.00 in0.0 mm
10:11 AM 25.4°F-3.7°C 14.2°F-9.9°C 66% 3.0 mph S4.8 kmh S 15.0 mph24.1 kmh 30.21 in1023.0 mb 0.00 in0.0 mm 0.00 in0.0 mm 0.00 in0.0 mm
10:09 AM 25.3°F-3.7°C 13.8°F-10.1°C 65% 3.0 mph WSW4.8 kmh WSW 15.0 mph24.1 kmh 30.21 in1023.0 mb 0.00 in0.0 mm 0.00 in0.0 mm 0.00 in0.0 mm
10:07 AM 25.3°F-3.7°C 13.8°F-10.1°C 65% 2.0 mph WSW3.2 kmh WSW 15.0 mph24.1 kmh 30.21 in1023.0 mb 0.00 in0.0 mm 0.00 in0.0 mm 0.00 in0.0 mm
10:05 AM 25.2°F-3.8°C 14.0°F-10.0°C 66% 4.0 mph WSW6.4 kmh WSW 15.0 mph24.1 kmh 30.21 in1023.0 mb 0.00 in0.0 mm 0.00 in0.0 mm 0.00 in0.0 mm
10:03 AM 25.1°F-3.8°C 13.6°F-10.2°C 65% 3.0 mph W4.8 kmh W 15.0 mph24.1 kmh 30.21 in1023.0 mb 0.00 in0.0 mm 0.00 in0.0 mm 0.00 in0.0 mm
10:01 AM 25.1°F-3.8°C 14.3°F-9.8°C 67% 5.0 mph SW8.0 kmh SW 15.0 mph24.1 kmh 30.21 in1023.0 mb 0.00 in0.0 mm 0.00 in0.0 mm 0.00 in0.0 mm
09:59 AM 25.0°F-3.9°C 13.8°F-10.1°C 66% 6.0 mph WNW9.7 kmh WNW 14.0 mph22.5 kmh 30.21 in1023.0 mb 0.00 in0.0 mm 0.00 in0.0 mm 0.00 in0.0 mm
09:57 AM 24.9°F-3.9°C 13.8°F-10.1°C 66% 2.0 mph W3.2 kmh W 14.0 mph22.5 kmh 30.21 in1023.0 mb 0.00 in0.0 mm 0.00 in0.0 mm 0.00 in0.0 mm
09:55 AM 24.7°F-4.1°C 13.9°F-10.1°C 67% 1.0 mph WNW1.6 kmh WNW 14.0 mph22.5 kmh 30.21 in1023.0 mb 0.00 in0.0 mm 0.00 in0.0 mm 0.00 in0.0 mm
09:53 AM 24.6°F-4.1°C 13.8°F-10.1°C 67% 7.0 mph WSW11.3 kmh WSW 14.0 mph22.5 kmh 30.21 in1023.0 mb 0.00 in0.0 mm 0.00 in0.0 mm 0.00 in0.0 mm
09:51 AM 24.5°F-4.2°C 13.7°F-10.2°C 67% 2.0 mph W3.2 kmh W 14.0 mph22.5 kmh 30.21 in1023.0 mb 0.00 in0.0 mm 0.00 in0.0 mm 0.00 in0.0 mm
09:49 AM 24.4°F-4.2°C 13.6°F-10.2°C 67% 2.0 mph WSW3.2 kmh WSW 13.0 mph20.9 kmh 30.21 in1023.0 mb 0.00 in0.0 mm 0.00 in0.0 mm 0.00 in0.0 mm
09:47 AM 24.3°F-4.3°C 13.5°F-10.3°C 67% 3.0 mph SW4.8 kmh SW 13.0 mph20.9 kmh 30.21 in1023.0 mb 0.00 in0.0 mm 0.00 in0.0 mm 0.00 in0.0 mm
09:45 AM 24.2°F-4.3°C 13.4°F-10.3°C 67% 4.0 mph WSW6.4 kmh WSW 13.0 mph20.9 kmh 30.21 in1023.0 mb 0.00 in0.0 mm 0.00 in0.0 mm 0.00 in0.0 mm
09:43 AM 24.0°F-4.4°C 13.3°F-10.4°C 67% 6.0 mph S9.7 kmh S 13.0 mph20.9 kmh 30.20 in1022.7 mb 0.00 in0.0 mm 0.00 in0.0 mm 0.00 in0.0 mm
09:41 AM 23.9°F-4.5°C 13.5°F-10.3°C 68% 2.0 mph WSW3.2 kmh WSW 13.0 mph20.9 kmh 30.20 in1022.7 mb 0.00 in0.0 mm 0.00 in0.0 mm 0.00 in0.0 mm
09:39 AM 23.8°F-4.6°C 13.4°F-10.3°C 68% 4.0 mph WNW6.4 kmh WNW 13.0 mph20.9 kmh 30.20 in1022.7 mb 0.00 in0.0 mm 0.00 in0.0 mm 0.00 in0.0 mm
09:37 AM 23.7°F-4.6°C 13.3°F-10.4°C 68% 3.0 mph NNW4.8 kmh NNW 13.0 mph20.9 kmh 30.20 in1022.7 mb 0.00 in0.0 mm 0.00 in0.0 mm 0.00 in0.0 mm
09:35 AM 23.6°F-4.7°C 13.2°F-10.4°C 68% 3.0 mph W4.8 kmh W 12.0 mph19.3 kmh 30.20 in1022.7 mb 0.00 in0.0 mm 0.00 in0.0 mm 0.00 in0.0 mm
09:33 AM 23.4°F-4.8°C 13.4°F-10.3°C 69% 2.0 mph SW3.2 kmh SW 11.0 mph17.7 kmh 30.20 in1022.7 mb 0.00 in0.0 mm 0.00 in0.0 mm 0.00 in0.0 mm
09:31 AM 23.3°F-4.8°C 13.3°F-10.4°C 69% 4.0 mph SW6.4 kmh SW 15.0 mph24.1 kmh 30.20 in1022.7 mb 0.00 in0.0 mm 0.00 in0.0 mm 0.00 in0.0 mm
09:29 AM 23.1°F-4.9°C 13.1°F-10.5°C 69% 7.0 mph WNW11.3 kmh WNW 15.0 mph24.1 kmh 30.20 in1022.7 mb 0.00 in0.0 mm 0.00 in0.0 mm 0.00 in0.0 mm
09:27 AM 23.0°F-5.0°C 13.0°F-10.6°C 69% 3.0 mph SW4.8 kmh SW 15.0 mph24.1 kmh 30.20 in1022.7 mb 0.00 in0.0 mm 0.00 in0.0 mm 0.00 in0.0 mm
09:25 AM 22.8°F-5.1°C 13.2°F-10.4°C 70% 3.0 mph NE4.8 kmh NE 15.0 mph24.1 kmh 30.20 in1022.7 mb 0.00 in0.0 mm 0.00 in0.0 mm 0.00 in0.0 mm
09:23 AM 22.6°F-5.2°C 13.0°F-10.6°C 70% 1.0 mph WSW1.6 kmh WSW 15.0 mph24.1 kmh 30.20 in1022.7 mb 0.00 in0.0 mm 0.00 in0.0 mm 0.00 in0.0 mm
09:21 AM 22.4°F-5.3°C 12.8°F-10.7°C 70% 2.0 mph W3.2 kmh W 15.0 mph24.1 kmh 30.20 in1022.7 mb 0.00 in0.0 mm 0.00 in0.0 mm 0.00 in0.0 mm
09:19 AM 22.2°F-5.4°C 12.6°F-10.8°C 70% 7.0 mph WNW11.3 kmh WNW 15.0 mph24.1 kmh 30.20 in1022.7 mb 0.00 in0.0 mm 0.00 in0.0 mm 0.00 in0.0 mm
09:17 AM 22.0°F-5.6°C 12.7°F-10.7°C 71% 2.0 mph W3.2 kmh W 15.0 mph24.1 kmh 30.20 in1022.7 mb 0.00 in0.0 mm 0.00 in0.0 mm 0.00 in0.0 mm
09:15 AM 21.7°F-5.7°C 12.8°F-10.7°C 72% 3.0 mph WSW4.8 kmh WSW 15.0 mph24.1 kmh 30.20 in1022.7 mb 0.00 in0.0 mm 0.00 in0.0 mm 0.00 in0.0 mm
09:13 AM 21.5°F-5.8°C 12.6°F-10.8°C 72% 2.0 mph S3.2 kmh S 15.0 mph24.1 kmh 30.20 in1022.7 mb 0.00 in0.0 mm 0.00 in0.0 mm 0.00 in0.0 mm
09:11 AM 21.3°F-5.9°C 12.4°F-10.9°C 72% 4.0 mph SW6.4 kmh SW 11.0 mph17.7 kmh 30.20 in1022.7 mb 0.00 in0.0 mm 0.00 in0.0 mm 0.00 in0.0 mm
09:09 AM 21.0°F-6.1°C 12.5°F-10.8°C 73% 4.0 mph WSW6.4 kmh WSW 11.0 mph17.7 kmh 30.20 in1022.7 mb 0.00 in0.0 mm 0.00 in0.0 mm 0.00 in0.0 mm
09:07 AM 20.8°F-6.2°C 12.6°F-10.8°C 74% 1.0 mph W1.6 kmh W 11.0 mph17.7 kmh 30.20 in1022.7 mb 0.00 in0.0 mm 0.00 in0.0 mm 0.00 in0.0 mm
09:05 AM 20.6°F-6.3°C 12.4°F-10.9°C 74% 9.0 mph SSW14.5 kmh SSW 11.0 mph17.7 kmh 30.20 in1022.7 mb 0.00 in0.0 mm 0.00 in0.0 mm 0.00 in0.0 mm
09:03 AM 20.4°F-6.4°C 12.2°F-11.0°C 74% 3.0 mph SSW4.8 kmh SSW 6.0 mph9.7 kmh 30.20 in1022.7 mb 0.00 in0.0 mm 0.00 in0.0 mm 0.00 in0.0 mm
09:01 AM 20.2°F-6.6°C 12.0°F-11.1°C 74% 2.0 mph SW3.2 kmh SW 6.0 mph9.7 kmh 30.20 in1022.7 mb 0.00 in0.0 mm 0.00 in0.0 mm 0.00 in0.0 mm
08:59 AM 20.1°F-6.6°C 11.9°F-11.2°C 74% 2.0 mph W3.2 kmh W 10.0 mph16.1 kmh 30.21 in1023.0 mb 0.00 in0.0 mm 0.00 in0.0 mm 0.00 in0.0 mm
08:57 AM 20.0°F-6.7°C 11.8°F-11.2°C 74% 1.0 mph SW1.6 kmh SW 10.0 mph16.1 kmh 30.21 in1023.0 mb 0.00 in0.0 mm 0.00 in0.0 mm 0.00 in0.0 mm
08:55 AM 19.9°F-6.7°C 11.7°F-11.3°C 74% 4.0 mph WSW6.4 kmh WSW 10.0 mph16.1 kmh 30.20 in1022.7 mb 0.00 in0.0 mm 0.00 in0.0 mm 0.00 in0.0 mm
08:53 AM 19.9°F-6.7°C 11.7°F-11.3°C 74% 2.0 mph W3.2 kmh W 10.0 mph16.1 kmh 30.20 in1022.7 mb 0.00 in0.0 mm 0.00 in0.0 mm 0.00 in0.0 mm
08:51 AM 19.8°F-6.8°C 11.6°F-11.3°C 74% 3.0 mph WNW4.8 kmh WNW 10.0 mph16.1 kmh 30.20 in1022.7 mb 0.00 in0.0 mm 0.00 in0.0 mm 0.00 in0.0 mm
08:49 AM 19.7°F-6.8°C 11.5°F-11.4°C 74% 2.0 mph W3.2 kmh W 10.0 mph16.1 kmh 30.20 in1022.7 mb 0.00 in0.0 mm 0.00 in0.0 mm 0.00 in0.0 mm
08:47 AM 19.7°F-6.8°C 11.5°F-11.4°C 74% 2.0 mph WNW3.2 kmh WNW 10.0 mph16.1 kmh 30.20 in1022.7 mb 0.00 in0.0 mm 0.00 in0.0 mm 0.00 in0.0 mm
08:45 AM 19.6°F-6.9°C 11.4°F-11.4°C 74% 3.0 mph WNW4.8 kmh WNW 10.0 mph16.1 kmh 30.20 in1022.7 mb 0.00 in0.0 mm 0.00 in0.0 mm 0.00 in0.0 mm
08:43 AM 19.6°F-6.9°C 11.4°F-11.4°C 74% Calm Calm 10.0 mph16.1 kmh 30.20 in1022.7 mb 0.00 in0.0 mm 0.00 in0.0 mm 0.00 in0.0 mm
08:41 AM 19.5°F-6.9°C 11.3°F-11.5°C 74% 2.0 mph W3.2 kmh W 10.0 mph16.1 kmh 30.20 in1022.7 mb 0.00 in0.0 mm 0.00 in0.0 mm 0.00 in0.0 mm
08:39 AM 19.5°F-6.9°C 11.3°F-11.5°C 74% 2.0 mph SSW3.2 kmh SSW 9.0 mph14.5 kmh 30.20 in1022.7 mb 0.00 in0.0 mm 0.00 in0.0 mm 0.00 in0.0 mm
08:37 AM 19.4°F-7.0°C 11.2°F-11.6°C 74% 1.0 mph SW1.6 kmh SW 9.0 mph14.5 kmh 30.20 in1022.7 mb 0.00 in0.0 mm 0.00 in0.0 mm 0.00 in0.0 mm
08:35 AM 19.4°F-7.0°C 11.2°F-11.6°C 74% 3.0 mph SW4.8 kmh SW 9.0 mph14.5 kmh 30.20 in1022.7 mb 0.00 in0.0 mm 0.00 in0.0 mm 0.00 in0.0 mm
08:33 AM 19.4°F-7.0°C 11.2°F-11.6°C 74% 1.0 mph WSW1.6 kmh WSW 9.0 mph14.5 kmh 30.20 in1022.7 mb 0.00 in0.0 mm 0.00 in0.0 mm 0.00 in0.0 mm
08:31 AM 19.4°F-7.0°C 11.2°F-11.6°C 74% Calm Calm 9.0 mph14.5 kmh 30.20 in1022.7 mb 0.00 in0.0 mm 0.00 in0.0 mm 0.00 in0.0 mm
08:29 AM 19.4°F-7.0°C 11.2°F-11.6°C 74% 2.0 mph WSW3.2 kmh WSW 9.0 mph14.5 kmh 30.20 in1022.7 mb 0.00 in0.0 mm 0.00 in0.0 mm 0.00 in0.0 mm
08:27 AM 19.3°F-7.1°C 11.1°F-11.6°C 74% 4.0 mph SW6.4 kmh SW 9.0 mph14.5 kmh 30.20 in1022.7 mb 0.00 in0.0 mm 0.00 in0.0 mm 0.00 in0.0 mm
08:25 AM 19.3°F-7.1°C 11.5°F-11.4°C 75% 2.0 mph WSW3.2 kmh WSW 9.0 mph14.5 kmh 30.21 in1023.0 mb 0.00 in0.0 mm 0.00 in0.0 mm 0.00 in0.0 mm
08:23 AM 19.3°F-7.1°C 11.1°F-11.6°C 74% 3.0 mph W4.8 kmh W 9.0 mph14.5 kmh 30.21 in1023.0 mb 0.00 in0.0 mm 0.00 in0.0 mm 0.00 in0.0 mm
08:21 AM 19.2°F-7.1°C 11.0°F-11.7°C 74% 4.0 mph WSW6.4 kmh WSW 8.0 mph12.9 kmh 30.21 in1023.0 mb 0.00 in0.0 mm 0.00 in0.0 mm 0.00 in0.0 mm
08:19 AM 19.1°F-7.2°C 11.3°F-11.5°C 75% 4.0 mph SW6.4 kmh SW 8.0 mph12.9 kmh 30.21 in1023.0 mb 0.00 in0.0 mm 0.00 in0.0 mm 0.00 in0.0 mm
08:17 AM 19.2°F-7.1°C 11.0°F-11.7°C 74% 1.0 mph WSW1.6 kmh WSW 8.0 mph12.9 kmh 30.21 in1023.0 mb 0.00 in0.0 mm 0.00 in0.0 mm 0.00 in0.0 mm
08:15 AM 19.2°F-7.1°C 11.0°F-11.7°C 74% 2.0 mph W3.2 kmh W 8.0 mph12.9 kmh 30.21 in1023.0 mb 0.00 in0.0 mm 0.00 in0.0 mm 0.00 in0.0 mm
08:13 AM 19.2°F-7.1°C 11.0°F-11.7°C 74% 2.0 mph WSW3.2 kmh WSW 8.0 mph12.9 kmh 30.21 in1023.0 mb 0.00 in0.0 mm 0.00 in0.0 mm 0.00 in0.0 mm
08:11 AM 19.2°F-7.1°C 11.0°F-11.7°C 74% 2.0 mph WSW3.2 kmh WSW 8.0 mph12.9 kmh 30.21 in1023.0 mb 0.00 in0.0 mm 0.00 in0.0 mm 0.00 in0.0 mm
08:09 AM 19.2°F-7.1°C 11.0°F-11.7°C 74% 1.0 mph W1.6 kmh W 7.0 mph11.3 kmh 30.21 in1023.0 mb 0.00 in0.0 mm 0.00 in0.0 mm 0.00 in0.0 mm
08:07 AM 19.2°F-7.1°C 11.0°F-11.7°C 74% 1.0 mph W1.6 kmh W 7.0 mph11.3 kmh 30.22 in1023.4 mb 0.00 in0.0 mm 0.00 in0.0 mm 0.00 in0.0 mm
08:05 AM 19.3°F-7.1°C 11.1°F-11.6°C 74% 1.0 mph WNW1.6 kmh WNW 9.0 mph14.5 kmh 30.22 in1023.4 mb 0.00 in0.0 mm 0.00 in0.0 mm 0.00 in0.0 mm
08:03 AM 19.2°F-7.1°C 11.0°F-11.7°C 74% 1.0 mph W1.6 kmh W 9.0 mph14.5 kmh 30.22 in1023.4 mb 0.00 in0.0 mm 0.00 in0.0 mm 0.00 in0.0 mm
08:01 AM 19.2°F-7.1°C 11.0°F-11.7°C 74% 4.0 mph SW6.4 kmh SW 9.0 mph14.5 kmh 30.21 in1023.0 mb 0.00 in0.0 mm 0.00 in0.0 mm 0.00 in0.0 mm
07:59 AM 19.3°F-7.1°C 11.1°F-11.6°C 74% 3.0 mph W4.8 kmh W 9.0 mph14.5 kmh 30.21 in1023.0 mb 0.00 in0.0 mm 0.00 in0.0 mm 0.00 in0.0 mm
07:57 AM 19.3°F-7.1°C 11.1°F-11.6°C 74% 1.0 mph WSW1.6 kmh WSW 9.0 mph14.5 kmh 30.21 in1023.0 mb 0.00 in0.0 mm 0.00 in0.0 mm 0.00 in0.0 mm
07:55 AM 19.3°F-7.1°C 11.1°F-11.6°C 74% 3.0 mph SSW4.8 kmh SSW 10.0 mph16.1 kmh 30.21 in1023.0 mb 0.00 in0.0 mm 0.00 in0.0 mm 0.00 in0.0 mm
07:53 AM 19.3°F-7.1°C 11.1°F-11.6°C 74% 5.0 mph WSW8.0 kmh WSW 10.0 mph16.1 kmh 30.21 in1023.0 mb 0.00 in0.0 mm 0.00 in0.0 mm 0.00 in0.0 mm
07:51 AM 19.3°F-7.1°C 11.1°F-11.6°C 74% 2.0 mph WNW3.2 kmh WNW 10.0 mph16.1 kmh 30.21 in1023.0 mb 0.00 in0.0 mm 0.00 in0.0 mm 0.00 in0.0 mm
07:49 AM 19.3°F-7.1°C 11.1°F-11.6°C 74% 4.0 mph SW6.4 kmh SW 10.0 mph16.1 kmh 30.22 in1023.4 mb 0.00 in0.0 mm 0.00 in0.0 mm 0.00 in0.0 mm
07:47 AM 19.3°F-7.1°C 11.1°F-11.6°C 74% 2.0 mph W3.2 kmh W 10.0 mph16.1 kmh 30.22 in1023.4 mb 0.00 in0.0 mm 0.00 in0.0 mm 0.00 in0.0 mm
07:45 AM 19.3°F-7.1°C 11.1°F-11.6°C 74% 2.0 mph W3.2 kmh W 10.0 mph16.1 kmh 30.22 in1023.4 mb 0.00 in0.0 mm 0.00 in0.0 mm 0.00 in0.0 mm
07:43 AM 19.3°F-7.1°C 11.1°F-11.6°C 74% 2.0 mph W3.2 kmh W 10.0 mph16.1 kmh 30.22 in1023.4 mb 0.00 in0.0 mm 0.00 in0.0 mm 0.00 in0.0 mm
07:41 AM 19.3°F-7.1°C 11.1°F-11.6°C 74% 6.0 mph WSW9.7 kmh WSW 10.0 mph16.1 kmh 30.22 in1023.4 mb 0.00 in0.0 mm 0.00 in0.0 mm 0.00 in0.0 mm
07:39 AM 19.3°F-7.1°C 11.1°F-11.6°C 74% 3.0 mph W4.8 kmh W 10.0 mph16.1 kmh 30.22 in1023.4 mb 0.00 in0.0 mm 0.00 in0.0 mm 0.00 in0.0 mm
07:37 AM 19.3°F-7.1°C 11.1°F-11.6°C 74% 4.0 mph SSW6.4 kmh SSW 10.0 mph16.1 kmh 30.22 in1023.4 mb 0.00 in0.0 mm 0.00 in0.0 mm 0.00 in0.0 mm
07:35 AM 19.3°F-7.1°C 11.1°F-11.6°C 74% 3.0 mph SW4.8 kmh SW 8.0 mph12.9 kmh 30.22 in1023.4 mb 0.00 in0.0 mm 0.00 in0.0 mm 0.00 in0.0 mm
07:33 AM 19.4°F-7.0°C 11.2°F-11.6°C 74% 5.0 mph SW8.0 kmh SW 8.0 mph12.9 kmh 30.22 in1023.4 mb 0.00 in0.0 mm 0.00 in0.0 mm 0.00 in0.0 mm
07:31 AM 19.4°F-7.0°C 11.2°F-11.6°C 74% 4.0 mph SW6.4 kmh SW 8.0 mph12.9 kmh 30.22 in1023.4 mb 0.00 in0.0 mm 0.00 in0.0 mm 0.00 in0.0 mm
07:29 AM 19.3°F-7.1°C 11.1°F-11.6°C 74% 4.0 mph SW6.4 kmh SW 8.0 mph12.9 kmh 30.22 in1023.4 mb 0.00 in0.0 mm 0.00 in0.0 mm 0.00 in0.0 mm
07:27 AM 19.3°F-7.1°C 11.1°F-11.6°C 74% 4.0 mph W6.4 kmh W 9.0 mph14.5 kmh 30.22 in1023.4 mb 0.00 in0.0 mm 0.00 in0.0 mm 0.00 in0.0 mm
07:25 AM 19.3°F-7.1°C 11.1°F-11.6°C 74% 1.0 mph WSW1.6 kmh WSW 9.0 mph14.5 kmh 30.22 in1023.4 mb 0.00 in0.0 mm 0.00 in0.0 mm 0.00 in0.0 mm
07:23 AM 19.3°F-7.1°C 11.1°F-11.6°C 74% 1.0 mph SW1.6 kmh SW 9.0 mph14.5 kmh 30.22 in1023.4 mb 0.00 in0.0 mm 0.00 in0.0 mm 0.00 in0.0 mm
07:21 AM 19.3°F-7.1°C 11.1°F-11.6°C 74% 1.0 mph W1.6 kmh W 9.0 mph14.5 kmh 30.22 in1023.4 mb 0.00 in0.0 mm 0.00 in0.0 mm 0.00 in0.0 mm
07:19 AM 19.3°F-7.1°C 11.1°F-11.6°C 74% 2.0 mph SW3.2 kmh SW 9.0 mph14.5 kmh 30.22 in1023.4 mb 0.00 in0.0 mm 0.00 in0.0 mm 0.00 in0.0 mm
07:17 AM 19.3°F-7.1°C 11.1°F-11.6°C 74% 1.0 mph WSW1.6 kmh WSW 10.0 mph16.1 kmh 30.21 in1023.0 mb 0.00 in0.0 mm 0.00 in0.0 mm 0.00 in0.0 mm
07:15 AM 19.3°F-7.1°C 11.1°F-11.6°C 74% 6.0 mph W9.7 kmh W 10.0 mph16.1 kmh 30.21 in1023.0 mb 0.00 in0.0 mm 0.00 in0.0 mm 0.00 in0.0 mm
07:13 AM 19.2°F-7.1°C 11.0°F-11.7°C 74% 2.0 mph WSW3.2 kmh WSW 10.0 mph16.1 kmh 30.21 in1023.0 mb 0.00 in0.0 mm 0.00 in0.0 mm 0.00 in0.0 mm
07:11 AM 19.2°F-7.1°C 11.0°F-11.7°C 74% 4.0 mph W6.4 kmh W 10.0 mph16.1 kmh 30.21 in1023.0 mb 0.00 in0.0 mm 0.00 in0.0 mm 0.00 in0.0 mm
07:09 AM 19.2°F-7.1°C 11.0°F-11.7°C 74% 2.0 mph SW3.2 kmh SW 10.0 mph16.1 kmh 30.21 in1023.0 mb 0.00 in0.0 mm 0.00 in0.0 mm 0.00 in0.0 mm
07:07 AM 19.2°F-7.1°C 11.0°F-11.7°C 74% 5.0 mph WSW8.0 kmh WSW 10.0 mph16.1 kmh 30.21 in1023.0 mb 0.00 in0.0 mm 0.00 in0.0 mm 0.00 in0.0 mm
07:05 AM 19.2°F-7.1°C 11.0°F-11.7°C 74% 3.0 mph WSW4.8 kmh WSW 10.0 mph16.1 kmh 30.21 in1023.0 mb 0.00 in0.0 mm 0.00 in0.0 mm 0.00 in0.0 mm
07:03 AM 19.2°F-7.1°C 11.0°F-11.7°C 74% 2.0 mph W3.2 kmh W 10.0 mph16.1 kmh 30.21 in1023.0 mb 0.00 in0.0 mm 0.00 in0.0 mm 0.00 in0.0 mm
07:01 AM 19.3°F-7.1°C 11.1°F-11.6°C 74% 3.0 mph WSW4.8 kmh WSW 10.0 mph16.1 kmh 30.21 in1023.0 mb 0.00 in0.0 mm 0.00 in0.0 mm 0.00 in0.0 mm
06:59 AM 19.3°F-7.1°C 11.1°F-11.6°C 74% 2.0 mph W3.2 kmh W 10.0 mph16.1 kmh 30.20 in1022.7 mb 0.00 in0.0 mm 0.00 in0.0 mm 0.00 in0.0 mm
06:57 AM 19.2°F-7.1°C 11.0°F-11.7°C 74% 7.0 mph WSW11.3 kmh WSW 9.0 mph14.5 kmh 30.21 in1023.0 mb 0.00 in0.0 mm 0.00 in0.0 mm 0.00 in0.0 mm
06:55 AM 19.2°F-7.1°C 11.0°F-11.7°C 74% 1.0 mph W1.6 kmh W 9.0 mph14.5 kmh 30.21 in1023.0 mb 0.00 in0.0 mm 0.00 in0.0 mm 0.00 in0.0 mm
06:53 AM 19.2°F-7.1°C 11.0°F-11.7°C 74% 5.0 mph WSW8.0 kmh WSW 9.0 mph14.5 kmh 30.21 in1023.0 mb 0.00 in0.0 mm 0.00 in0.0 mm 0.00 in0.0 mm
06:51 AM 19.2°F-7.1°C 11.0°F-11.7°C 74% 3.0 mph SW4.8 kmh SW 9.0 mph14.5 kmh 30.21 in1023.0 mb 0.00 in0.0 mm 0.00 in0.0 mm 0.00 in0.0 mm
06:49 AM 19.2°F-7.1°C 11.0°F-11.7°C 74% 2.0 mph W3.2 kmh W 9.0 mph14.5 kmh 30.21 in1023.0 mb 0.00 in0.0 mm 0.00 in0.0 mm 0.00 in0.0 mm
06:47 AM 19.2°F-7.1°C 11.0°F-11.7°C 74% 2.0 mph WNW3.2 kmh WNW 9.0 mph14.5 kmh 30.21 in1023.0 mb 0.00 in0.0 mm 0.00 in0.0 mm 0.00 in0.0 mm
06:45 AM 19.3°F-7.1°C 11.1°F-11.6°C 74% 6.0 mph W9.7 kmh W 8.0 mph12.9 kmh 30.21 in1023.0 mb 0.00 in0.0 mm 0.00 in0.0 mm 0.00 in0.0 mm
06:43 AM 19.3°F-7.1°C 11.1°F-11.6°C 74% 4.0 mph SW6.4 kmh SW 8.0 mph12.9 kmh 30.21 in1023.0 mb 0.00 in0.0 mm 0.00 in0.0 mm 0.00 in0.0 mm
06:41 AM 19.4°F-7.0°C 11.2°F-11.6°C 74% 1.0 mph WSW1.6 kmh WSW 11.0 mph17.7 kmh 30.21 in1023.0 mb 0.00 in0.0 mm 0.00 in0.0 mm 0.00 in0.0 mm
06:39 AM 19.5°F-6.9°C 11.3°F-11.5°C 74% 4.0 mph WNW6.4 kmh WNW 11.0 mph17.7 kmh 30.21 in1023.0 mb 0.00 in0.0 mm 0.00 in0.0 mm 0.00 in0.0 mm
06:37 AM 19.5°F-6.9°C 11.3°F-11.5°C 74% 1.0 mph SW1.6 kmh SW 11.0 mph17.7 kmh 30.21 in1023.0 mb 0.00 in0.0 mm 0.00 in0.0 mm 0.00 in0.0 mm
06:35 AM 19.5°F-6.9°C 11.3°F-11.5°C 74% 6.0 mph W9.7 kmh W 11.0 mph17.7 kmh 30.21 in1023.0 mb 0.00 in0.0 mm 0.00 in0.0 mm 0.00 in0.0 mm
06:33 AM 19.6°F-6.9°C 11.4°F-11.4°C 74% 3.0 mph WSW4.8 kmh WSW 11.0 mph17.7 kmh 30.21 in1023.0 mb 0.00 in0.0 mm 0.00 in0.0 mm 0.00 in0.0 mm
06:31 AM 19.6°F-6.9°C 11.4°F-11.4°C 74% 4.0 mph W6.4 kmh W 11.0 mph17.7 kmh 30.21 in1023.0 mb 0.00 in0.0 mm 0.00 in0.0 mm 0.00 in0.0 mm
06:29 AM 19.5°F-6.9°C 11.3°F-11.5°C 74% 2.0 mph SW3.2 kmh SW 11.0 mph17.7 kmh 30.21 in1023.0 mb 0.00 in0.0 mm 0.00 in0.0 mm 0.00 in0.0 mm
06:27 AM 19.4°F-7.0°C 11.2°F-11.6°C 74% 4.0 mph WSW6.4 kmh WSW 11.0 mph17.7 kmh 30.21 in1023.0 mb 0.00 in0.0 mm 0.00 in0.0 mm 0.00 in0.0 mm
06:25 AM 19.4°F-7.0°C 11.2°F-11.6°C 74% 2.0 mph NW3.2 kmh NW 11.0 mph17.7 kmh 30.21 in1023.0 mb 0.00 in0.0 mm 0.00 in0.0 mm 0.00 in0.0 mm
06:23 AM 19.3°F-7.1°C 11.1°F-11.6°C 74% 1.0 mph W1.6 kmh W 11.0 mph17.7 kmh 30.21 in1023.0 mb 0.00 in0.0 mm 0.00 in0.0 mm 0.00 in0.0 mm
06:21 AM 19.2°F-7.1°C 11.0°F-11.7°C 74% 1.0 mph WSW1.6 kmh WSW 8.0 mph12.9 kmh 30.21 in1023.0 mb 0.00 in0.0 mm 0.00 in0.0 mm 0.00 in0.0 mm
06:19 AM 19.1°F-7.2°C 11.3°F-11.5°C 75% 3.0 mph W4.8 kmh W 8.0 mph12.9 kmh 30.20 in1022.7 mb 0.00 in0.0 mm 0.00 in0.0 mm 0.00 in0.0 mm
06:17 AM 19.2°F-7.1°C 11.4°F-11.4°C 75% 2.0 mph W3.2 kmh W 8.0 mph12.9 kmh 30.20 in1022.7 mb 0.00 in0.0 mm 0.00 in0.0 mm 0.00 in0.0 mm
06:15 AM 19.1°F-7.2°C 11.0°F-11.7°C 74% 6.0 mph W9.7 kmh W 8.0 mph12.9 kmh 30.20 in1022.7 mb 0.00 in0.0 mm 0.00 in0.0 mm 0.00 in0.0 mm
06:13 AM 19.2°F-7.1°C 11.0°F-11.7°C 74% 2.0 mph W3.2 kmh W 8.0 mph12.9 kmh 30.20 in1022.7 mb 0.00 in0.0 mm 0.00 in0.0 mm 0.00 in0.0 mm
06:11 AM 19.2°F-7.1°C 11.0°F-11.7°C 74% 3.0 mph SW4.8 kmh SW 8.0 mph12.9 kmh 30.21 in1023.0 mb 0.00 in0.0 mm 0.00 in0.0 mm 0.00 in0.0 mm
06:09 AM 19.2°F-7.1°C 11.0°F-11.7°C 74% 2.0 mph W3.2 kmh W 8.0 mph12.9 kmh 30.21 in1023.0 mb 0.00 in0.0 mm 0.00 in0.0 mm 0.00 in0.0 mm
06:07 AM 19.2°F-7.1°C 11.0°F-11.7°C 74% 3.0 mph W4.8 kmh W 9.0 mph14.5 kmh 30.21 in1023.0 mb 0.00 in0.0 mm 0.00 in0.0 mm 0.00 in0.0 mm
06:05 AM 19.2°F-7.1°C 11.0°F-11.7°C 74% 6.0 mph W9.7 kmh W 9.0 mph14.5 kmh 30.21 in1023.0 mb 0.00 in0.0 mm 0.00 in0.0 mm 0.00 in0.0 mm
06:03 AM 19.1°F-7.2°C 11.0°F-11.7°C 74% 6.0 mph W9.7 kmh W 9.0 mph14.5 kmh 30.20 in1022.7 mb 0.00 in0.0 mm 0.00 in0.0 mm 0.00 in0.0 mm
06:01 AM 19.1°F-7.2°C 11.0°F-11.7°C 74% 1.0 mph WNW1.6 kmh WNW 9.0 mph14.5 kmh 30.21 in1023.0 mb 0.00 in0.0 mm 0.00 in0.0 mm 0.00 in0.0 mm
05:59 AM 19.2°F-7.1°C 11.0°F-11.7°C 74% 3.0 mph SW4.8 kmh SW 9.0 mph14.5 kmh 30.21 in1023.0 mb 0.00 in0.0 mm 0.00 in0.0 mm 0.00 in0.0 mm
05:57 AM 19.1°F-7.2°C 11.0°F-11.7°C 74% 5.0 mph SW8.0 kmh SW 14.0 mph22.5 kmh 30.21 in1023.0 mb 0.00 in0.0 mm 0.00 in0.0 mm 0.00 in0.0 mm
05:55 AM 19.1°F-7.2°C 11.3°F-11.5°C 75% 4.0 mph WSW6.4 kmh WSW 14.0 mph22.5 kmh 30.21 in1023.0 mb 0.00 in0.0 mm 0.00 in0.0 mm 0.00 in0.0 mm
05:53 AM 19.1°F-7.2°C 11.3°F-11.5°C 75% 2.0 mph WSW3.2 kmh WSW 14.0 mph22.5 kmh 30.21 in1023.0 mb 0.00 in0.0 mm 0.00 in0.0 mm 0.00 in0.0 mm
05:51 AM 19.0°F-7.2°C 11.2°F-11.6°C 75% 4.0 mph WSW6.4 kmh WSW 14.0 mph22.5 kmh 30.21 in1023.0 mb 0.00 in0.0 mm 0.00 in0.0 mm 0.00 in0.0 mm
05:49 AM 19.0°F-7.2°C 11.2°F-11.6°C 75% 3.0 mph WSW4.8 kmh WSW 14.0 mph22.5 kmh 30.21 in1023.0 mb 0.00 in0.0 mm 0.00 in0.0 mm 0.00 in0.0 mm
05:47 AM 19.0°F-7.2°C 11.2°F-11.6°C 75% 2.0 mph WSW3.2 kmh WSW 14.0 mph22.5 kmh 30.21 in1023.0 mb 0.00 in0.0 mm 0.00 in0.0 mm 0.00 in0.0 mm
05:45 AM 18.9°F-7.3°C 11.1°F-11.6°C 75% 1.0 mph S1.6 kmh S 14.0 mph22.5 kmh 30.20 in1022.7 mb 0.00 in0.0 mm 0.00 in0.0 mm 0.00 in0.0 mm
05:43 AM 18.8°F-7.3°C 11.0°F-11.7°C 75% 4.0 mph NW6.4 kmh NW 14.0 mph22.5 kmh 30.21 in1023.0 mb 0.00 in0.0 mm 0.00 in0.0 mm 0.00 in0.0 mm
05:41 AM 18.8°F-7.3°C 11.0°F-11.7°C 75% 2.0 mph WSW3.2 kmh WSW 14.0 mph22.5 kmh 30.20 in1022.7 mb 0.00 in0.0 mm 0.00 in0.0 mm 0.00 in0.0 mm
05:39 AM 18.8°F-7.3°C 11.0°F-11.7°C 75% 2.0 mph WSW3.2 kmh WSW 14.0 mph22.5 kmh 30.21 in1023.0 mb 0.00 in0.0 mm 0.00 in0.0 mm 0.00 in0.0 mm
05:37 AM 18.8°F-7.3°C 11.0°F-11.7°C 75% 2.0 mph WSW3.2 kmh WSW 10.0 mph16.1 kmh 30.20 in1022.7 mb 0.00 in0.0 mm 0.00 in0.0 mm 0.00 in0.0 mm
05:35 AM 18.8°F-7.3°C 11.0°F-11.7°C 75% 2.0 mph WSW3.2 kmh WSW 10.0 mph16.1 kmh 30.20 in1022.7 mb 0.00 in0.0 mm 0.00 in0.0 mm 0.00 in0.0 mm
05:33 AM 18.8°F-7.3°C 11.0°F-11.7°C 75% 3.0 mph WSW4.8 kmh WSW 10.0 mph16.1 kmh 30.21 in1023.0 mb 0.00 in0.0 mm 0.00 in0.0 mm 0.00 in0.0 mm
05:31 AM 18.8°F-7.3°C 11.0°F-11.7°C 75% 1.0 mph W1.6 kmh W 10.0 mph16.1 kmh 30.21 in1023.0 mb 0.00 in0.0 mm 0.00 in0.0 mm 0.00 in0.0 mm
05:29 AM 18.8°F-7.3°C 11.0°F-11.7°C 75% 2.0 mph W3.2 kmh W 10.0 mph16.1 kmh 30.21 in1023.0 mb 0.00 in0.0 mm 0.00 in0.0 mm 0.00 in0.0 mm
05:27 AM 18.8°F-7.3°C 11.0°F-11.7°C 75% 2.0 mph WSW3.2 kmh WSW 10.0 mph16.1 kmh 30.21 in1023.0 mb 0.00 in0.0 mm 0.00 in0.0 mm 0.00 in0.0 mm
05:25 AM 18.8°F-7.3°C 11.0°F-11.7°C 75% 2.0 mph WNW3.2 kmh WNW 10.0 mph16.1 kmh 30.21 in1023.0 mb 0.00 in0.0 mm 0.00 in0.0 mm 0.00 in0.0 mm
05:23 AM 18.8°F-7.3°C 11.0°F-11.7°C 75% 2.0 mph W3.2 kmh W 10.0 mph16.1 kmh 30.21 in1023.0 mb 0.00 in0.0 mm 0.00 in0.0 mm 0.00 in0.0 mm
05:21 AM 18.8°F-7.3°C 11.0°F-11.7°C 75% 1.0 mph WSW1.6 kmh WSW 10.0 mph16.1 kmh 30.21 in1023.0 mb 0.00 in0.0 mm 0.00 in0.0 mm 0.00 in0.0 mm
05:19 AM 18.8°F-7.3°C 11.0°F-11.7°C 75% 4.0 mph SW6.4 kmh SW 9.0 mph14.5 kmh 30.21 in1023.0 mb 0.00 in0.0 mm 0.00 in0.0 mm 0.00 in0.0 mm
05:17 AM 18.8°F-7.3°C 11.0°F-11.7°C 75% 1.0 mph W1.6 kmh W 9.0 mph14.5 kmh 30.21 in1023.0 mb 0.00 in0.0 mm 0.00 in0.0 mm 0.00 in0.0 mm
05:15 AM 18.8°F-7.3°C 11.0°F-11.7°C 75% 2.0 mph WNW3.2 kmh WNW 9.0 mph14.5 kmh 30.21 in1023.0 mb 0.00 in0.0 mm 0.00 in0.0 mm 0.00 in0.0 mm
05:13 AM 18.8°F-7.3°C 11.0°F-11.7°C 75% 2.0 mph SW3.2 kmh SW 9.0 mph14.5 kmh 30.21 in1023.0 mb 0.00 in0.0 mm 0.00 in0.0 mm 0.00 in0.0 mm
05:11 AM 18.8°F-7.3°C 11.0°F-11.7°C 75% 1.0 mph WSW1.6 kmh WSW 9.0 mph14.5 kmh 30.21 in1023.0 mb 0.00 in0.0 mm 0.00 in0.0 mm 0.00 in0.0 mm
05:09 AM 18.8°F-7.3°C 11.0°F-11.7°C 75% 2.0 mph WSW3.2 kmh WSW 9.0 mph14.5 kmh 30.21 in1023.0 mb 0.00 in0.0 mm 0.00 in0.0 mm 0.00 in0.0 mm
05:07 AM 18.7°F-7.4°C 10.9°F-11.7°C 75% 4.0 mph SW6.4 kmh SW 9.0 mph14.5 kmh 30.21 in1023.0 mb 0.00 in0.0 mm 0.00 in0.0 mm 0.00 in0.0 mm
05:05 AM 18.8°F-7.3°C 11.0°F-11.7°C 75% 1.0 mph SSW1.6 kmh SSW 9.0 mph14.5 kmh 30.21 in1023.0 mb 0.00 in0.0 mm 0.00 in0.0 mm 0.00 in0.0 mm
05:03 AM 18.8°F-7.3°C 11.0°F-11.7°C 75% 2.0 mph W3.2 kmh W 9.0 mph14.5 kmh 30.21 in1023.0 mb 0.00 in0.0 mm 0.00 in0.0 mm 0.00 in0.0 mm
05:01 AM 18.8°F-7.3°C 11.0°F-11.7°C 75% 1.0 mph SW1.6 kmh SW 9.0 mph14.5 kmh 30.21 in1023.0 mb 0.00 in0.0 mm 0.00 in0.0 mm 0.00 in0.0 mm
04:59 AM 18.7°F-7.4°C 10.9°F-11.7°C 75% 2.0 mph WSW3.2 kmh WSW 9.0 mph14.5 kmh 30.21 in1023.0 mb 0.00 in0.0 mm 0.00 in0.0 mm 0.00 in0.0 mm
04:57 AM 18.7°F-7.4°C 10.9°F-11.7°C 75% 4.0 mph WSW6.4 kmh WSW 9.0 mph14.5 kmh 30.21 in1023.0 mb 0.00 in0.0 mm 0.00 in0.0 mm 0.00 in0.0 mm
04:55 AM 18.6°F-7.4°C 10.8°F-11.8°C 75% 2.0 mph W3.2 kmh W 9.0 mph14.5 kmh 30.21 in1023.0 mb 0.00 in0.0 mm 0.00 in0.0 mm 0.00 in0.0 mm
04:53 AM 18.6°F-7.4°C 10.8°F-11.8°C 75% 2.0 mph W3.2 kmh W 9.0 mph14.5 kmh 30.21 in1023.0 mb 0.00 in0.0 mm 0.00 in0.0 mm 0.00 in0.0 mm
04:51 AM 18.5°F-7.5°C 10.7°F-11.8°C 75% 2.0 mph WSW3.2 kmh WSW 9.0 mph14.5 kmh 30.21 in1023.0 mb 0.00 in0.0 mm 0.00 in0.0 mm 0.00 in0.0 mm
04:49 AM 18.5°F-7.5°C 10.7°F-11.8°C 75% 1.0 mph WNW1.6 kmh WNW 7.0 mph11.3 kmh 30.22 in1023.4 mb 0.00 in0.0 mm 0.00 in0.0 mm 0.00 in0.0 mm
04:47 AM 18.5°F-7.5°C 10.7°F-11.8°C 75% 2.0 mph W3.2 kmh W 7.0 mph11.3 kmh 30.22 in1023.4 mb 0.00 in0.0 mm 0.00 in0.0 mm 0.00 in0.0 mm
04:45 AM 18.6°F-7.4°C 10.8°F-11.8°C 75% 1.0 mph WSW1.6 kmh WSW 7.0 mph11.3 kmh 30.22 in1023.4 mb 0.00 in0.0 mm 0.00 in0.0 mm 0.00 in0.0 mm
04:43 AM 18.6°F-7.4°C 10.8°F-11.8°C 75% 3.0 mph W4.8 kmh W 7.0 mph11.3 kmh 30.22 in1023.4 mb 0.00 in0.0 mm 0.00 in0.0 mm 0.00 in0.0 mm
04:41 AM 18.6°F-7.4°C 10.8°F-11.8°C 75% 1.0 mph WSW1.6 kmh WSW 7.0 mph11.3 kmh 30.21 in1023.0 mb 0.00 in0.0 mm 0.00 in0.0 mm 0.00 in0.0 mm
04:39 AM 18.6°F-7.4°C 10.8°F-11.8°C 75% 1.0 mph S1.6 kmh S 7.0 mph11.3 kmh 30.21 in1023.0 mb 0.00 in0.0 mm 0.00 in0.0 mm 0.00 in0.0 mm
04:37 AM 18.6°F-7.4°C 10.8°F-11.8°C 75% 2.0 mph SW3.2 kmh SW 7.0 mph11.3 kmh 30.21 in1023.0 mb 0.00 in0.0 mm 0.00 in0.0 mm 0.00 in0.0 mm
04:35 AM 18.6°F-7.4°C 10.8°F-11.8°C 75% 1.0 mph SW1.6 kmh SW 8.0 mph12.9 kmh 30.21 in1023.0 mb 0.00 in0.0 mm 0.00 in0.0 mm 0.00 in0.0 mm
04:33 AM 18.6°F-7.4°C 10.8°F-11.8°C 75% 2.0 mph WSW3.2 kmh WSW 8.0 mph12.9 kmh 30.21 in1023.0 mb 0.00 in0.0 mm 0.00 in0.0 mm 0.00 in0.0 mm
04:31 AM 18.7°F-7.4°C 10.9°F-11.7°C 75% 2.0 mph SSW3.2 kmh SSW 8.0 mph12.9 kmh 30.21 in1023.0 mb 0.00 in0.0 mm 0.00 in0.0 mm 0.00 in0.0 mm
04:29 AM 18.6°F-7.4°C 10.8°F-11.8°C 75% 2.0 mph SW3.2 kmh SW 8.0 mph12.9 kmh 30.21 in1023.0 mb 0.00 in0.0 mm 0.00 in0.0 mm 0.00 in0.0 mm
04:27 AM 18.6°F-7.4°C 10.5°F-11.9°C 74% 2.0 mph SW3.2 kmh SW 8.0 mph12.9 kmh 30.21 in1023.0 mb 0.00 in0.0 mm 0.00 in0.0 mm 0.00 in0.0 mm
04:25 AM 18.7°F-7.4°C 10.6°F-11.9°C 74% 1.0 mph W1.6 kmh W 8.0 mph12.9 kmh 30.21 in1023.0 mb 0.00 in0.0 mm 0.00 in0.0 mm 0.00 in0.0 mm
04:23 AM 18.8°F-7.3°C 11.0°F-11.7°C 75% 1.0 mph SW1.6 kmh SW 8.0 mph12.9 kmh 30.21 in1023.0 mb 0.00 in0.0 mm 0.00 in0.0 mm 0.00 in0.0 mm
04:21 AM 18.8°F-7.3°C 10.7°F-11.8°C 74% 1.0 mph SW1.6 kmh SW 8.0 mph12.9 kmh 30.21 in1023.0 mb 0.00 in0.0 mm 0.00 in0.0 mm 0.00 in0.0 mm
04:19 AM 18.8°F-7.3°C 10.7°F-11.8°C 74% 4.0 mph W6.4 kmh W 8.0 mph12.9 kmh 30.21 in1023.0 mb 0.00 in0.0 mm 0.00 in0.0 mm 0.00 in0.0 mm
04:17 AM 18.8°F-7.3°C 10.7°F-11.8°C 74% 2.0 mph SW3.2 kmh SW 8.0 mph12.9 kmh 30.21 in1023.0 mb 0.00 in0.0 mm 0.00 in0.0 mm 0.00 in0.0 mm
04:15 AM 18.8°F-7.3°C 10.7°F-11.8°C 74% 4.0 mph SW6.4 kmh SW 7.0 mph11.3 kmh 30.21 in1023.0 mb 0.00 in0.0 mm 0.00 in0.0 mm 0.00 in0.0 mm
04:13 AM 18.9°F-7.3°C 10.8°F-11.8°C 74% 1.0 mph WSW1.6 kmh WSW 7.0 mph11.3 kmh 30.21 in1023.0 mb 0.00 in0.0 mm 0.00 in0.0 mm 0.00 in0.0 mm
04:11 AM 18.9°F-7.3°C 10.8°F-11.8°C 74% 1.0 mph W1.6 kmh W 7.0 mph11.3 kmh 30.21 in1023.0 mb 0.00 in0.0 mm 0.00 in0.0 mm 0.00 in0.0 mm
04:09 AM 18.8°F-7.3°C 10.7°F-11.8°C 74% 4.0 mph W6.4 kmh W 7.0 mph11.3 kmh 30.21 in1023.0 mb 0.00 in0.0 mm 0.00 in0.0 mm 0.00 in0.0 mm
04:07 AM 18.8°F-7.3°C 10.7°F-11.8°C 74% 2.0 mph W3.2 kmh W 7.0 mph11.3 kmh 30.21 in1023.0 mb 0.00 in0.0 mm 0.00 in0.0 mm 0.00 in0.0 mm
04:05 AM 18.8°F-7.3°C 10.7°F-11.8°C 74% 3.0 mph WSW4.8 kmh WSW 5.0 mph8.0 kmh 30.21 in1023.0 mb 0.00 in0.0 mm 0.00 in0.0 mm 0.00 in0.0 mm
04:03 AM 18.8°F-7.3°C 10.7°F-11.8°C 74% 2.0 mph WSW3.2 kmh WSW 5.0 mph8.0 kmh 30.21 in1023.0 mb 0.00 in0.0 mm 0.00 in0.0 mm 0.00 in0.0 mm
04:01 AM 18.9°F-7.3°C 10.8°F-11.8°C 74% 2.0 mph SW3.2 kmh SW 8.0 mph12.9 kmh 30.21 in1023.0 mb 0.00 in0.0 mm 0.00 in0.0 mm 0.00 in0.0 mm
03:59 AM 19.0°F-7.2°C 10.9°F-11.7°C 74% 1.0 mph WSW1.6 kmh WSW 8.0 mph12.9 kmh 30.21 in1023.0 mb 0.00 in0.0 mm 0.00 in0.0 mm 0.00 in0.0 mm
03:57 AM 19.0°F-7.2°C 10.9°F-11.7°C 74% 2.0 mph WSW3.2 kmh WSW 8.0 mph12.9 kmh 30.21 in1023.0 mb 0.00 in0.0 mm 0.00 in0.0 mm 0.00 in0.0 mm
03:55 AM 19.0°F-7.2°C 10.9°F-11.7°C 74% 1.0 mph W1.6 kmh W 8.0 mph12.9 kmh 30.21 in1023.0 mb 0.00 in0.0 mm 0.00 in0.0 mm 0.00 in0.0 mm
03:53 AM 19.0°F-7.2°C 10.9°F-11.7°C 74% 2.0 mph WSW3.2 kmh WSW 8.0 mph12.9 kmh 30.21 in1023.0 mb 0.00 in0.0 mm 0.00 in0.0 mm 0.00 in0.0 mm
03:51 AM 19.1°F-7.2°C 11.0°F-11.7°C 74% 2.0 mph WSW3.2 kmh WSW 8.0 mph12.9 kmh 30.21 in1023.0 mb 0.00 in0.0 mm 0.00 in0.0 mm 0.00 in0.0 mm
03:49 AM 19.1°F-7.2°C 11.0°F-11.7°C 74% 2.0 mph W3.2 kmh W 8.0 mph12.9 kmh 30.22 in1023.4 mb 0.00 in0.0 mm 0.00 in0.0 mm 0.00 in0.0 mm
03:47 AM 19.1°F-7.2°C 11.0°F-11.7°C 74% 3.0 mph SW4.8 kmh SW 8.0 mph12.9 kmh 30.22 in1023.4 mb 0.00 in0.0 mm 0.00 in0.0 mm 0.00 in0.0 mm
03:45 AM 19.1°F-7.2°C 10.6°F-11.9°C 73% 1.0 mph NW1.6 kmh NW 8.0 mph12.9 kmh 30.22 in1023.4 mb 0.00 in0.0 mm 0.00 in0.0 mm 0.00 in0.0 mm
03:43 AM 19.1°F-7.2°C 10.6°F-11.9°C 73% 1.0 mph SW1.6 kmh SW 8.0 mph12.9 kmh 30.22 in1023.4 mb 0.00 in0.0 mm 0.00 in0.0 mm 0.00 in0.0 mm
03:41 AM 19.2°F-7.1°C 10.7°F-11.8°C 73% 3.0 mph WSW4.8 kmh WSW 7.0 mph11.3 kmh 30.22 in1023.4 mb 0.00 in0.0 mm 0.00 in0.0 mm 0.00 in0.0 mm
03:39 AM 19.2°F-7.1°C 10.7°F-11.8°C 73% 2.0 mph W3.2 kmh W 8.0 mph12.9 kmh 30.22 in1023.4 mb 0.00 in0.0 mm 0.00 in0.0 mm 0.00 in0.0 mm
03:37 AM 19.2°F-7.1°C 10.7°F-11.8°C 73% 3.0 mph W4.8 kmh W 8.0 mph12.9 kmh 30.22 in1023.4 mb 0.00 in0.0 mm 0.00 in0.0 mm 0.00 in0.0 mm
03:35 AM 19.3°F-7.1°C 10.8°F-11.8°C 73% 5.0 mph SW8.0 kmh SW 8.0 mph12.9 kmh 30.22 in1023.4 mb 0.00 in0.0 mm 0.00 in0.0 mm 0.00 in0.0 mm
03:33 AM 19.3°F-7.1°C 10.8°F-11.8°C 73% 3.0 mph WSW4.8 kmh WSW 8.0 mph12.9 kmh 30.22 in1023.4 mb 0.00 in0.0 mm 0.00 in0.0 mm 0.00 in0.0 mm
03:31 AM 19.4°F-7.0°C 10.9°F-11.7°C 73% 3.0 mph SW4.8 kmh SW 8.0 mph12.9 kmh 30.22 in1023.4 mb 0.00 in0.0 mm 0.00 in0.0 mm 0.00 in0.0 mm
03:29 AM 19.4°F-7.0°C 10.9°F-11.7°C 73% 1.0 mph WNW1.6 kmh WNW 9.0 mph14.5 kmh 30.22 in1023.4 mb 0.00 in0.0 mm 0.00 in0.0 mm 0.00 in0.0 mm
03:27 AM 19.4°F-7.0°C 10.9°F-11.7°C 73% 3.0 mph SSW4.8 kmh SSW 9.0 mph14.5 kmh 30.22 in1023.4 mb 0.00 in0.0 mm 0.00 in0.0 mm 0.00 in0.0 mm
03:25 AM 19.4°F-7.0°C 10.9°F-11.7°C 73% 2.0 mph WSW3.2 kmh WSW 9.0 mph14.5 kmh 30.22 in1023.4 mb 0.00 in0.0 mm 0.00 in0.0 mm 0.00 in0.0 mm
03:23 AM 19.4°F-7.0°C 10.9°F-11.7°C 73% 6.0 mph WSW9.7 kmh WSW 9.0 mph14.5 kmh 30.22 in1023.4 mb 0.00 in0.0 mm 0.00 in0.0 mm 0.00 in0.0 mm
03:21 AM 19.4°F-7.0°C 10.9°F-11.7°C 73% 1.0 mph WSW1.6 kmh WSW 9.0 mph14.5 kmh 30.22 in1023.4 mb 0.00 in0.0 mm 0.00 in0.0 mm 0.00 in0.0 mm
03:19 AM 19.5°F-6.9°C 11.0°F-11.7°C 73% 6.0 mph SW9.7 kmh SW 9.0 mph14.5 kmh 30.22 in1023.4 mb 0.00 in0.0 mm 0.00 in0.0 mm 0.00 in0.0 mm
03:17 AM 19.6°F-6.9°C 11.1°F-11.6°C 73% 1.0 mph WNW1.6 kmh WNW 9.0 mph14.5 kmh 30.22 in1023.4 mb 0.00 in0.0 mm 0.00 in0.0 mm 0.00 in0.0 mm
03:15 AM 19.6°F-6.9°C 11.1°F-11.6°C 73% 3.0 mph WNW4.8 kmh WNW 9.0 mph14.5 kmh 30.22 in1023.4 mb 0.00 in0.0 mm 0.00 in0.0 mm 0.00 in0.0 mm
03:13 AM 19.6°F-6.9°C 11.1°F-11.6°C 73% 3.0 mph WNW4.8 kmh WNW 9.0 mph14.5 kmh 30.22 in1023.4 mb 0.00 in0.0 mm 0.00 in0.0 mm 0.00 in0.0 mm
03:11 AM 19.5°F-6.9°C 11.0°F-11.7°C 73% 2.0 mph S3.2 kmh S 9.0 mph14.5 kmh 30.22 in1023.4 mb 0.00 in0.0 mm 0.00 in0.0 mm 0.00 in0.0 mm
03:09 AM 19.5°F-6.9°C 11.0°F-11.7°C 73% 6.0 mph WSW9.7 kmh WSW 9.0 mph14.5 kmh 30.22 in1023.4 mb 0.00 in0.0 mm 0.00 in0.0 mm 0.00 in0.0 mm
03:07 AM 19.5°F-6.9°C 11.0°F-11.7°C 73% 3.0 mph WSW4.8 kmh WSW 9.0 mph14.5 kmh 30.22 in1023.4 mb 0.00 in0.0 mm 0.00 in0.0 mm 0.00 in0.0 mm
03:05 AM 19.4°F-7.0°C 10.9°F-11.7°C 73% 3.0 mph W4.8 kmh W 9.0 mph14.5 kmh 30.22 in1023.4 mb 0.00 in0.0 mm 0.00 in0.0 mm 0.00 in0.0 mm
03:03 AM 19.3°F-7.1°C 10.8°F-11.8°C 73% 3.0 mph W4.8 kmh W 10.0 mph16.1 kmh 30.22 in1023.4 mb 0.00 in0.0 mm 0.00 in0.0 mm 0.00 in0.0 mm
03:01 AM 19.3°F-7.1°C 10.8°F-11.8°C 73% 3.0 mph S4.8 kmh S 10.0 mph16.1 kmh 30.22 in1023.4 mb 0.00 in0.0 mm 0.00 in0.0 mm 0.00 in0.0 mm
02:59 AM 19.3°F-7.1°C 10.8°F-11.8°C 73% 1.0 mph WSW1.6 kmh WSW 10.0 mph16.1 kmh 30.22 in1023.4 mb 0.00 in0.0 mm 0.00 in0.0 mm 0.00 in0.0 mm
02:57 AM 19.3°F-7.1°C 10.8°F-11.8°C 73% 2.0 mph WNW3.2 kmh WNW 10.0 mph16.1 kmh 30.22 in1023.4 mb 0.00 in0.0 mm 0.00 in0.0 mm 0.00 in0.0 mm
02:55 AM 19.3°F-7.1°C 10.8°F-11.8°C 73% 2.0 mph NW3.2 kmh NW 10.0 mph16.1 kmh 30.22 in1023.4 mb 0.00 in0.0 mm 0.00 in0.0 mm 0.00 in0.0 mm
02:53 AM 19.4°F-7.0°C 10.9°F-11.7°C 73% 2.0 mph W3.2 kmh W 10.0 mph16.1 kmh 30.22 in1023.4 mb 0.00 in0.0 mm 0.00 in0.0 mm 0.00 in0.0 mm
02:51 AM 19.4°F-7.0°C 10.9°F-11.7°C 73% 2.0 mph NW3.2 kmh NW 10.0 mph16.1 kmh 30.22 in1023.4 mb 0.00 in0.0 mm 0.00 in0.0 mm 0.00 in0.0 mm
02:49 AM 19.5°F-6.9°C 11.0°F-11.7°C 73% 1.0 mph W1.6 kmh W 10.0 mph16.1 kmh 30.22 in1023.4 mb 0.00 in0.0 mm 0.00 in0.0 mm 0.00 in0.0 mm
02:47 AM 19.5°F-6.9°C 10.7°F-11.8°C 72% 3.0 mph WSW4.8 kmh WSW 10.0 mph16.1 kmh 30.22 in1023.4 mb 0.00 in0.0 mm 0.00 in0.0 mm 0.00 in0.0 mm
02:45 AM 19.5°F-6.9°C 10.7°F-11.8°C 72% 1.0 mph S1.6 kmh S 10.0 mph16.1 kmh 30.22 in1023.4 mb 0.00 in0.0 mm 0.00 in0.0 mm 0.00 in0.0 mm
02:43 AM 19.5°F-6.9°C 10.7°F-11.8°C 72% 2.0 mph S3.2 kmh S 8.0 mph12.9 kmh 30.22 in1023.4 mb 0.00 in0.0 mm 0.00 in0.0 mm 0.00 in0.0 mm
02:41 AM 19.6°F-6.9°C 10.8°F-11.8°C 72% 1.0 mph WSW1.6 kmh WSW 8.0 mph12.9 kmh 30.22 in1023.4 mb 0.00 in0.0 mm 0.00 in0.0 mm 0.00 in0.0 mm
02:39 AM 19.6°F-6.9°C 10.8°F-11.8°C 72% 2.0 mph WSW3.2 kmh WSW 8.0 mph12.9 kmh 30.22 in1023.4 mb 0.00 in0.0 mm 0.00 in0.0 mm 0.00 in0.0 mm
02:37 AM 19.6°F-6.9°C 10.8°F-11.8°C 72% 5.0 mph SW8.0 kmh SW 8.0 mph12.9 kmh 30.22 in1023.4 mb 0.00 in0.0 mm 0.00 in0.0 mm 0.00 in0.0 mm
02:35 AM 19.7°F-6.8°C 10.9°F-11.7°C 72% 1.0 mph W1.6 kmh W 8.0 mph12.9 kmh 30.22 in1023.4 mb 0.00 in0.0 mm 0.00 in0.0 mm 0.00 in0.0 mm
02:33 AM 19.7°F-6.8°C 10.9°F-11.7°C 72% 2.0 mph W3.2 kmh W 8.0 mph12.9 kmh 30.22 in1023.4 mb 0.00 in0.0 mm 0.00 in0.0 mm 0.00 in0.0 mm
02:31 AM 19.6°F-6.9°C 10.8°F-11.8°C 72% 1.0 mph W1.6 kmh W 8.0 mph12.9 kmh 30.22 in1023.4 mb 0.00 in0.0 mm 0.00 in0.0 mm 0.00 in0.0 mm
02:29 AM 19.5°F-6.9°C 10.7°F-11.8°C 72% 4.0 mph WSW6.4 kmh WSW 8.0 mph12.9 kmh 30.22 in1023.4 mb 0.00 in0.0 mm 0.00 in0.0 mm 0.00 in0.0 mm
02:27 AM 19.5°F-6.9°C 10.7°F-11.8°C 72% 2.0 mph SW3.2 kmh SW 7.0 mph11.3 kmh 30.22 in1023.4 mb 0.00 in0.0 mm 0.00 in0.0 mm 0.00 in0.0 mm
02:25 AM 19.6°F-6.9°C 10.8°F-11.8°C 72% 1.0 mph W1.6 kmh W 7.0 mph11.3 kmh 30.22 in1023.4 mb 0.00 in0.0 mm 0.00 in0.0 mm 0.00 in0.0 mm
02:23 AM 19.5°F-6.9°C 10.7°F-11.8°C 72% 4.0 mph SW6.4 kmh SW 7.0 mph11.3 kmh 30.22 in1023.4 mb 0.00 in0.0 mm 0.00 in0.0 mm 0.00 in0.0 mm
02:21 AM 19.5°F-6.9°C 10.7°F-11.8°C 72% 1.0 mph W1.6 kmh W 7.0 mph11.3 kmh 30.21 in1023.0 mb 0.00 in0.0 mm 0.00 in0.0 mm 0.00 in0.0 mm
02:19 AM 19.6°F-6.9°C 10.8°F-11.8°C 72% 2.0 mph SW3.2 kmh SW 7.0 mph11.3 kmh 30.21 in1023.0 mb 0.00 in0.0 mm 0.00 in0.0 mm 0.00 in0.0 mm
02:17 AM 19.7°F-6.8°C 10.9°F-11.7°C 72% 1.0 mph S1.6 kmh S 7.0 mph11.3 kmh 30.21 in1023.0 mb 0.00 in0.0 mm 0.00 in0.0 mm 0.00 in0.0 mm
02:15 AM 19.7°F-6.8°C 10.9°F-11.7°C 72% 1.0 mph SW1.6 kmh SW 7.0 mph11.3 kmh 30.21 in1023.0 mb 0.00 in0.0 mm 0.00 in0.0 mm 0.00 in0.0 mm
02:13 AM 19.7°F-6.8°C 10.5°F-11.9°C 71% 4.0 mph SW6.4 kmh SW 7.0 mph11.3 kmh 30.21 in1023.0 mb 0.00 in0.0 mm 0.00 in0.0 mm 0.00 in0.0 mm
02:11 AM 19.7°F-6.8°C 10.5°F-11.9°C 71% 3.0 mph W4.8 kmh W 7.0 mph11.3 kmh 30.21 in1023.0 mb 0.00 in0.0 mm 0.00 in0.0 mm 0.00 in0.0 mm
02:09 AM 19.8°F-6.8°C 10.6°F-11.9°C 71% 3.0 mph SW4.8 kmh SW 7.0 mph11.3 kmh 30.21 in1023.0 mb 0.00 in0.0 mm 0.00 in0.0 mm 0.00 in0.0 mm
02:07 AM 19.8°F-6.8°C 10.6°F-11.9°C 71% 3.0 mph WSW4.8 kmh WSW 7.0 mph11.3 kmh 30.21 in1023.0 mb 0.00 in0.0 mm 0.00 in0.0 mm 0.00 in0.0 mm
02:05 AM 19.8°F-6.8°C 10.6°F-11.9°C 71% 3.0 mph WNW4.8 kmh WNW 7.0 mph11.3 kmh 30.21 in1023.0 mb 0.00 in0.0 mm 0.00 in0.0 mm 0.00 in0.0 mm
02:03 AM 19.9°F-6.7°C 10.7°F-11.8°C 71% 3.0 mph WSW4.8 kmh WSW 7.0 mph11.3 kmh 30.21 in1023.0 mb 0.00 in0.0 mm 0.00 in0.0 mm 0.00 in0.0 mm
02:01 AM 19.9°F-6.7°C 10.7°F-11.8°C 71% 1.0 mph SW1.6 kmh SW 7.0 mph11.3 kmh 30.21 in1023.0 mb 0.00 in0.0 mm 0.00 in0.0 mm 0.00 in0.0 mm
01:59 AM 19.9°F-6.7°C 10.7°F-11.8°C 71% 1.0 mph W1.6 kmh W 7.0 mph11.3 kmh 30.21 in1023.0 mb 0.00 in0.0 mm 0.00 in0.0 mm 0.00 in0.0 mm
01:57 AM 19.9°F-6.7°C 10.7°F-11.8°C 71% 1.0 mph WSW1.6 kmh WSW 10.0 mph16.1 kmh 30.21 in1023.0 mb 0.00 in0.0 mm 0.00 in0.0 mm 0.00 in0.0 mm
01:55 AM 20.0°F-6.7°C 10.8°F-11.8°C 71% 1.0 mph SW1.6 kmh SW 10.0 mph16.1 kmh 30.21 in1023.0 mb 0.00 in0.0 mm 0.00 in0.0 mm 0.00 in0.0 mm
01:53 AM 20.0°F-6.7°C 10.8°F-11.8°C 71% 3.0 mph WSW4.8 kmh WSW 10.0 mph16.1 kmh 30.21 in1023.0 mb 0.00 in0.0 mm 0.00 in0.0 mm 0.00 in0.0 mm
01:51 AM 20.0°F-6.7°C 10.8°F-11.8°C 71% 2.0 mph SW3.2 kmh SW 10.0 mph16.1 kmh 30.21 in1023.0 mb 0.00 in0.0 mm 0.00 in0.0 mm 0.00 in0.0 mm
01:49 AM 20.0°F-6.7°C 10.8°F-11.8°C 71% 4.0 mph W6.4 kmh W 10.0 mph16.1 kmh 30.21 in1023.0 mb 0.00 in0.0 mm 0.00 in0.0 mm 0.00 in0.0 mm
01:47 AM 20.0°F-6.7°C 10.8°F-11.8°C 71% 2.0 mph SW3.2 kmh SW 10.0 mph16.1 kmh 30.21 in1023.0 mb 0.00 in0.0 mm 0.00 in0.0 mm 0.00 in0.0 mm
01:45 AM 20.2°F-6.6°C 11.0°F-11.7°C 71% 1.0 mph SSW1.6 kmh SSW 10.0 mph16.1 kmh 30.21 in1023.0 mb 0.00 in0.0 mm 0.00 in0.0 mm 0.00 in0.0 mm
01:43 AM 20.2°F-6.6°C 11.0°F-11.7°C 71% 2.0 mph W3.2 kmh W 10.0 mph16.1 kmh 30.21 in1023.0 mb 0.00 in0.0 mm 0.00 in0.0 mm 0.00 in0.0 mm
01:41 AM 20.3°F-6.5°C 10.8°F-11.8°C 70% 1.0 mph S1.6 kmh S 10.0 mph16.1 kmh 30.21 in1023.0 mb 0.00 in0.0 mm 0.00 in0.0 mm 0.00 in0.0 mm
01:39 AM 20.3°F-6.5°C 10.8°F-11.8°C 70% 3.0 mph W4.8 kmh W 10.0 mph16.1 kmh 30.21 in1023.0 mb 0.00 in0.0 mm 0.00 in0.0 mm 0.00 in0.0 mm
01:37 AM 20.4°F-6.4°C 10.9°F-11.7°C 70% 2.0 mph SW3.2 kmh SW 10.0 mph16.1 kmh 30.21 in1023.0 mb 0.00 in0.0 mm 0.00 in0.0 mm 0.00 in0.0 mm
01:35 AM 20.4°F-6.4°C 10.9°F-11.7°C 70% 7.0 mph SW11.3 kmh SW 10.0 mph16.1 kmh 30.21 in1023.0 mb 0.00 in0.0 mm 0.00 in0.0 mm 0.00 in0.0 mm
01:33 AM 20.3°F-6.5°C 10.8°F-11.8°C 70% 3.0 mph W4.8 kmh W 10.0 mph16.1 kmh 30.21 in1023.0 mb 0.00 in0.0 mm 0.00 in0.0 mm 0.00 in0.0 mm
01:31 AM 20.4°F-6.4°C 10.9°F-11.7°C 70% 6.0 mph W9.7 kmh W 10.0 mph16.1 kmh 30.21 in1023.0 mb 0.00 in0.0 mm 0.00 in0.0 mm 0.00 in0.0 mm
01:29 AM 20.4°F-6.4°C 10.9°F-11.7°C 70% 2.0 mph WNW3.2 kmh WNW 10.0 mph16.1 kmh 30.20 in1022.7 mb 0.00 in0.0 mm 0.00 in0.0 mm 0.00 in0.0 mm
01:27 AM 20.4°F-6.4°C 10.9°F-11.7°C 70% 3.0 mph W4.8 kmh W 10.0 mph16.1 kmh 30.21 in1023.0 mb 0.00 in0.0 mm 0.00 in0.0 mm 0.00 in0.0 mm
01:25 AM 20.5°F-6.4°C 11.0°F-11.7°C 70% 1.0 mph WSW1.6 kmh WSW 10.0 mph16.1 kmh 30.21 in1023.0 mb 0.00 in0.0 mm 0.00 in0.0 mm 0.00 in0.0 mm
01:23 AM 20.6°F-6.3°C 11.1°F-11.6°C 70% 2.0 mph W3.2 kmh W 10.0 mph16.1 kmh 30.21 in1023.0 mb 0.00 in0.0 mm 0.00 in0.0 mm 0.00 in0.0 mm
01:21 AM 20.6°F-6.3°C 11.1°F-11.6°C 70% 3.0 mph W4.8 kmh W 10.0 mph16.1 kmh 30.21 in1023.0 mb 0.00 in0.0 mm 0.00 in0.0 mm 0.00 in0.0 mm
01:19 AM 20.7°F-6.3°C 11.2°F-11.6°C 70% 2.0 mph W3.2 kmh W 10.0 mph16.1 kmh 30.21 in1023.0 mb 0.00 in0.0 mm 0.00 in0.0 mm 0.00 in0.0 mm
01:17 AM 20.8°F-6.2°C 10.9°F-11.7°C 69% 3.0 mph WSW4.8 kmh WSW 10.0 mph16.1 kmh 30.21 in1023.0 mb 0.00 in0.0 mm 0.00 in0.0 mm 0.00 in0.0 mm
01:15 AM 20.8°F-6.2°C 10.9°F-11.7°C 69% 3.0 mph SW4.8 kmh SW 14.0 mph22.5 kmh 30.21 in1023.0 mb 0.00 in0.0 mm 0.00 in0.0 mm 0.00 in0.0 mm
01:13 AM 20.8°F-6.2°C 11.3°F-11.5°C 70% 1.0 mph WSW1.6 kmh WSW 14.0 mph22.5 kmh 30.21 in1023.0 mb 0.00 in0.0 mm 0.00 in0.0 mm 0.00 in0.0 mm
01:11 AM 20.8°F-6.2°C 10.9°F-11.7°C 69% 2.0 mph WNW3.2 kmh WNW 14.0 mph22.5 kmh 30.21 in1023.0 mb 0.00 in0.0 mm 0.00 in0.0 mm 0.00 in0.0 mm
01:09 AM 20.7°F-6.3°C 11.2°F-11.6°C 70% 4.0 mph WSW6.4 kmh WSW 14.0 mph22.5 kmh 30.21 in1023.0 mb 0.00 in0.0 mm 0.00 in0.0 mm 0.00 in0.0 mm
01:07 AM 20.8°F-6.2°C 11.3°F-11.5°C 70% 1.0 mph S1.6 kmh S 14.0 mph22.5 kmh 30.21 in1023.0 mb 0.00 in0.0 mm 0.00 in0.0 mm 0.00 in0.0 mm
01:05 AM 20.8°F-6.2°C 11.3°F-11.5°C 70% 3.0 mph WSW4.8 kmh WSW 14.0 mph22.5 kmh 30.21 in1023.0 mb 0.00 in0.0 mm 0.00 in0.0 mm 0.00 in0.0 mm
01:03 AM 20.8°F-6.2°C 11.3°F-11.5°C 70% 5.0 mph SW8.0 kmh SW 14.0 mph22.5 kmh 30.21 in1023.0 mb 0.00 in0.0 mm 0.00 in0.0 mm 0.00 in0.0 mm
01:01 AM 20.8°F-6.2°C 11.3°F-11.5°C 70% 1.0 mph SW1.6 kmh SW 14.0 mph22.5 kmh 30.21 in1023.0 mb 0.00 in0.0 mm 0.00 in0.0 mm 0.00 in0.0 mm
12:59 AM 20.8°F-6.2°C 11.3°F-11.5°C 70% 9.0 mph SSW14.5 kmh SSW 14.0 mph22.5 kmh 30.21 in1023.0 mb 0.00 in0.0 mm 0.00 in0.0 mm 0.00 in0.0 mm
12:57 AM 20.9°F-6.2°C 11.4°F-11.4°C 70% 3.0 mph WSW4.8 kmh WSW 14.0 mph22.5 kmh 30.21 in1023.0 mb 0.00 in0.0 mm 0.00 in0.0 mm 0.00 in0.0 mm
12:55 AM 20.8°F-6.2°C 11.3°F-11.5°C 70% 2.0 mph SW3.2 kmh SW 11.0 mph17.7 kmh 30.21 in1023.0 mb 0.00 in0.0 mm 0.00 in0.0 mm 0.00 in0.0 mm
12:53 AM 20.9°F-6.2°C 11.4°F-11.4°C 70% 3.0 mph W4.8 kmh W 12.0 mph19.3 kmh 30.21 in1023.0 mb 0.00 in0.0 mm 0.00 in0.0 mm 0.00 in0.0 mm
12:51 AM 21.0°F-6.1°C 11.1°F-11.6°C 69% 1.0 mph NW1.6 kmh NW 12.0 mph19.3 kmh 30.22 in1023.4 mb 0.00 in0.0 mm 0.00 in0.0 mm 0.00 in0.0 mm
12:49 AM 21.1°F-6.1°C 11.5°F-11.4°C 70% 1.0 mph SSW1.6 kmh SSW 12.0 mph19.3 kmh 30.21 in1023.0 mb 0.00 in0.0 mm 0.00 in0.0 mm 0.00 in0.0 mm
12:47 AM 21.1°F-6.1°C 11.2°F-11.6°C 69% 2.0 mph W3.2 kmh W 12.0 mph19.3 kmh 30.21 in1023.0 mb 0.00 in0.0 mm 0.00 in0.0 mm 0.00 in0.0 mm
12:45 AM 21.1°F-6.1°C 11.2°F-11.6°C 69% 4.0 mph WSW6.4 kmh WSW 12.0 mph19.3 kmh 30.21 in1023.0 mb 0.00 in0.0 mm 0.00 in0.0 mm 0.00 in0.0 mm
12:43 AM 21.2°F-6.0°C 11.3°F-11.5°C 69% 2.0 mph WSW3.2 kmh WSW 12.0 mph19.3 kmh 30.22 in1023.4 mb 0.00 in0.0 mm 0.00 in0.0 mm 0.00 in0.0 mm
12:41 AM 21.2°F-6.0°C 11.3°F-11.5°C 69% 2.0 mph WSW3.2 kmh WSW 12.0 mph19.3 kmh 30.22 in1023.4 mb 0.00 in0.0 mm 0.00 in0.0 mm 0.00 in0.0 mm
12:39 AM 21.3°F-5.9°C 11.4°F-11.4°C 69% 3.0 mph SW4.8 kmh SW 12.0 mph19.3 kmh 30.22 in1023.4 mb 0.00 in0.0 mm 0.00 in0.0 mm 0.00 in0.0 mm
12:37 AM 21.3°F-5.9°C 11.4°F-11.4°C 69% 2.0 mph WNW3.2 kmh WNW 12.0 mph19.3 kmh 30.22 in1023.4 mb 0.00 in0.0 mm 0.00 in0.0 mm 0.00 in0.0 mm
12:35 AM 21.4°F-5.9°C 11.1°F-11.6°C 68% 2.0 mph SW3.2 kmh SW 12.0 mph19.3 kmh 30.22 in1023.4 mb 0.00 in0.0 mm 0.00 in0.0 mm 0.00 in0.0 mm
12:33 AM 21.3°F-5.9°C 11.4°F-11.4°C 69% 8.0 mph W12.9 kmh W 8.0 mph12.9 kmh 30.22 in1023.4 mb 0.00 in0.0 mm 0.00 in0.0 mm 0.00 in0.0 mm
12:31 AM 21.3°F-5.9°C 11.4°F-11.4°C 69% 2.0 mph WSW3.2 kmh WSW 8.0 mph12.9 kmh 30.22 in1023.4 mb 0.00 in0.0 mm 0.00 in0.0 mm 0.00 in0.0 mm
12:29 AM 21.3°F-5.9°C 11.4°F-11.4°C 69% 2.0 mph W3.2 kmh W 11.0 mph17.7 kmh 30.22 in1023.4 mb 0.00 in0.0 mm 0.00 in0.0 mm 0.00 in0.0 mm
12:27 AM 21.3°F-5.9°C 11.4°F-11.4°C 69% 2.0 mph WSW3.2 kmh WSW 11.0 mph17.7 kmh 30.23 in1023.7 mb 0.00 in0.0 mm 0.00 in0.0 mm 0.00 in0.0 mm
12:25 AM 21.3°F-5.9°C 11.4°F-11.4°C 69% 3.0 mph WSW4.8 kmh WSW 11.0 mph17.7 kmh 30.23 in1023.7 mb 0.00 in0.0 mm 0.00 in0.0 mm 0.00 in0.0 mm
12:23 AM 21.4°F-5.9°C 11.8°F-11.2°C 70% 3.0 mph W4.8 kmh W 11.0 mph17.7 kmh 30.22 in1023.4 mb 0.00 in0.0 mm 0.00 in0.0 mm 0.00 in0.0 mm
12:21 AM 21.3°F-5.9°C 11.4°F-11.4°C 69% 5.0 mph SSW8.0 kmh SSW 11.0 mph17.7 kmh 30.22 in1023.4 mb 0.00 in0.0 mm 0.00 in0.0 mm 0.00 in0.0 mm
12:19 AM 21.3°F-5.9°C 11.4°F-11.4°C 69% 5.0 mph WNW8.0 kmh WNW 11.0 mph17.7 kmh 30.22 in1023.4 mb 0.00 in0.0 mm 0.00 in0.0 mm 0.00 in0.0 mm
12:17 AM 21.3°F-5.9°C 11.4°F-11.4°C 69% 3.0 mph WNW4.8 kmh WNW 11.0 mph17.7 kmh 30.22 in1023.4 mb 0.00 in0.0 mm 0.00 in0.0 mm 0.00 in0.0 mm
12:15 AM 21.3°F-5.9°C 11.7°F-11.3°C 70% 5.0 mph NW8.0 kmh NW 11.0 mph17.7 kmh 30.22 in1023.4 mb 0.00 in0.0 mm 0.00 in0.0 mm 0.00 in0.0 mm
12:13 AM 21.3°F-5.9°C 11.4°F-11.4°C 69% 2.0 mph WSW3.2 kmh WSW 11.0 mph17.7 kmh 30.22 in1023.4 mb 0.00 in0.0 mm 0.00 in0.0 mm 0.00 in0.0 mm
12:11 AM 21.3°F-5.9°C 11.7°F-11.3°C 70% 9.0 mph W14.5 kmh W 11.0 mph17.7 kmh 30.22 in1023.4 mb 0.00 in0.0 mm 0.00 in0.0 mm 0.00 in0.0 mm
12:09 AM 21.4°F-5.9°C 11.8°F-11.2°C 70% 2.0 mph WSW3.2 kmh WSW 10.0 mph16.1 kmh 30.22 in1023.4 mb 0.00 in0.0 mm 0.00 in0.0 mm 0.00 in0.0 mm
12:07 AM 21.4°F-5.9°C 11.8°F-11.2°C 70% 2.0 mph S3.2 kmh S 10.0 mph16.1 kmh 30.22 in1023.4 mb 0.00 in0.0 mm 0.00 in0.0 mm 0.00 in0.0 mm
12:05 AM 21.4°F-5.9°C 11.5°F-11.4°C 69% 1.0 mph WSW1.6 kmh WSW 13.0 mph20.9 kmh 30.23 in1023.7 mb 0.00 in0.0 mm 0.00 in0.0 mm 0.00 in0.0 mm
12:03 AM 21.4°F-5.9°C 11.8°F-11.2°C 70% 4.0 mph SW6.4 kmh SW 13.0 mph20.9 kmh 30.23 in1023.7 mb 0.00 in0.0 mm 0.00 in0.0 mm 0.00 in0.0 mm
12:01 AM 21.4°F-5.9°C 11.8°F-11.2°C 70% 3.0 mph WSW4.8 kmh WSW 13.0 mph20.9 kmh 30.23 in1023.7 mb 0.00 in0.0 mm 0.00 in0.0 mm 0.00 in0.0 mm